Time,TemperatureF,DewpointF,PressureIn,WindDirection,WindDirectionDegrees,WindSpeedMPH,WindSpeedGustMPH,Humidity,HourlyPrecipIn,Conditions,Clouds,dailyrainin,SoftwareType,DateUTC
2013-08-20 00:02:00,70.7,56.6,29.12,South,182,3.1,3.1,61,0.00,,,0.00,VWS V13.01,2013-08-20 05:02:00,
2013-08-20 00:07:00,70.9,56.8,29.12,South,182,3.1,3.1,61,0.00,,,0.00,VWS V13.01,2013-08-20 05:07:00,
2013-08-20 00:12:00,70.7,56.6,29.12,South,191,2.7,2.7,61,0.00,,,0.00,VWS V13.01,2013-08-20 05:12:00,
2013-08-20 00:17:00,70.5,56.4,29.12,South,191,2.7,2.7,61,0.00,,,0.00,VWS V13.01,2013-08-20 05:17:00,
2013-08-20 00:22:00,70.5,56.4,29.12,South,191,3.1,3.1,61,0.00,,,0.00,VWS V13.01,2013-08-20 05:22:00,
2013-08-20 00:27:00,70.3,56.3,29.12,South,190,0.0,0.0,61,0.00,,,0.00,VWS V13.01,2013-08-20 05:27:00,
2013-08-20 00:32:00,70.0,55.9,29.12,South,190,0.0,0.0,61,0.00,,,0.00,VWS V13.01,2013-08-20 05:32:00,
2013-08-20 00:37:00,70.0,63.2,29.12,South,189,0.0,0.0,79,0.00,,,0.00,VWS V13.01,2013-08-20 05:37:00,
2013-08-20 00:42:00,70.2,63.3,29.12,South,181,3.6,3.6,79,0.00,,,0.00,VWS V13.01,2013-08-20 05:42:00,
2013-08-20 00:47:00,69.8,63.0,29.12,South,181,4.9,4.9,79,0.00,,,0.00,VWS V13.01,2013-08-20 05:47:00,
2013-08-20 00:48:00,69.8,63.0,29.12,South,181,4.0,4.0,79,0.00,,,0.00,VWS V13.01,2013-08-20 05:48:00,
2013-08-20 00:52:00,69.3,62.5,29.12,South,181,4.0,4.0,79,0.00,,,0.00,VWS V13.01,2013-08-20 05:52:00,
2013-08-20 00:53:00,69.3,62.5,29.12,South,181,4.0,4.0,79,0.00,,,0.00,VWS V13.01,2013-08-20 05:53:00,
2013-08-20 00:57:00,69.4,62.7,29.12,South,181,3.6,3.6,79,0.00,,,0.00,VWS V13.01,2013-08-20 05:57:00,
2013-08-20 00:58:00,69.4,62.7,29.12,South,187,4.0,4.0,79,0.00,,,0.00,VWS V13.01,2013-08-20 05:58:00,
2013-08-20 01:02:00,69.4,62.7,29.12,South,185,3.1,3.1,79,0.00,,,0.00,VWS V13.01,2013-08-20 06:02:00,
2013-08-20 01:03:00,69.4,62.7,29.12,South,185,4.0,4.0,79,0.00,,,0.00,VWS V13.01,2013-08-20 06:03:00,
2013-08-20 01:07:00,69.4,62.7,29.12,SSW,195,3.1,3.1,79,0.00,,,0.00,VWS V13.01,2013-08-20 06:07:00,
2013-08-20 01:08:00,69.4,62.7,29.12,SSW,194,2.7,2.7,79,0.00,,,0.00,VWS V13.01,2013-08-20 06:08:00,
2013-08-20 01:12:00,69.3,62.5,29.12,SSW,194,3.6,3.6,79,0.00,,,0.00,VWS V13.01,2013-08-20 06:12:00,
2013-08-20 01:13:00,69.1,62.3,29.12,SSW,194,3.1,3.1,79,0.00,,,0.00,VWS V13.01,2013-08-20 06:13:00,
2013-08-20 01:17:00,68.9,62.1,29.12,South,189,2.7,2.7,79,0.00,,,0.00,VWS V13.01,2013-08-20 06:17:00,
2013-08-20 01:18:00,68.7,62.0,29.12,South,189,3.6,3.6,79,0.00,,,0.00,VWS V13.01,2013-08-20 06:18:00,
2013-08-20 01:22:00,68.7,67.8,29.12,South,189,2.7,2.7,97,0.00,,,0.00,VWS V13.01,2013-08-20 06:22:00,
2013-08-20 01:23:00,68.7,67.8,29.12,South,189,2.7,2.7,97,0.00,,,0.00,VWS V13.01,2013-08-20 06:23:00,
2013-08-20 01:27:00,68.7,67.8,29.12,South,189,3.1,3.1,97,0.00,,,0.00,VWS V13.01,2013-08-20 06:27:00,
2013-08-20 01:28:00,68.7,67.8,29.12,South,189,3.1,3.1,97,0.00,,,0.00,VWS V13.01,2013-08-20 06:28:00,
2013-08-20 01:32:00,68.7,67.8,29.12,South,189,3.6,3.6,97,0.00,,,0.00,VWS V13.01,2013-08-20 06:32:00,
2013-08-20 01:33:00,68.7,67.8,29.12,South,189,3.6,3.6,97,0.00,,,0.00,VWS V13.01,2013-08-20 06:33:00,
2013-08-20 01:34:00,68.5,67.7,29.12,South,189,2.7,2.7,97,0.00,,,0.00,VWS V13.01,2013-08-20 06:34:00,
2013-08-20 01:37:00,68.4,67.5,29.12,South,189,3.6,3.6,97,0.00,,,0.00,VWS V13.01,2013-08-20 06:37:00,
2013-08-20 01:38:00,68.4,67.5,29.12,South,189,3.1,3.1,97,0.00,,,0.00,VWS V13.01,2013-08-20 06:38:00,
2013-08-20 01:39:00,68.4,67.5,29.12,South,189,3.6,3.6,97,0.00,,,0.00,VWS V13.01,2013-08-20 06:39:00,
2013-08-20 01:43:00,68.2,68.2,29.12,South,189,3.6,3.6,100,0.00,,,0.00,VWS V13.01,2013-08-20 06:43:00,
2013-08-20 01:44:00,68.2,68.2,29.12,South,189,2.7,2.7,100,0.00,,,0.00,VWS V13.01,2013-08-20 06:44:00,
2013-08-20 01:48:00,68.2,68.2,29.12,South,189,3.6,3.6,100,0.00,,,0.00,VWS V13.01,2013-08-20 06:48:00,
2013-08-20 01:49:00,68.2,68.2,29.12,South,189,3.1,3.1,100,0.00,,,0.00,VWS V13.01,2013-08-20 06:49:00,
2013-08-20 01:53:00,68.0,68.0,29.12,South,189,3.1,3.1,100,0.00,,,0.00,VWS V13.01,2013-08-20 06:53:00,
2013-08-20 01:54:00,68.0,68.0,29.12,South,189,2.7,2.7,100,0.00,,,0.00,VWS V13.01,2013-08-20 06:54:00,
2013-08-20 01:58:00,68.0,68.0,29.12,SSW,192,2.7,2.7,100,0.00,,,0.00,VWS V13.01,2013-08-20 06:58:00,
2013-08-20 01:59:00,68.0,68.0,29.12,SSW,192,3.6,3.6,100,0.00,,,0.00,VWS V13.01,2013-08-20 06:59:00,
2013-08-20 02:03:00,68.0,68.0,29.12,SSW,192,4.0,4.0,100,0.00,,,0.00,VWS V13.01,2013-08-20 07:03:00,
2013-08-20 02:04:00,68.0,68.0,29.12,SSW,192,4.0,4.0,100,0.00,,,0.00,VWS V13.01,2013-08-20 07:04:00,
2013-08-20 02:08:00,68.0,68.0,29.12,South,191,3.1,3.1,100,0.00,,,0.00,VWS V13.01,2013-08-20 07:08:00,
2013-08-20 02:09:00,68.0,68.0,29.12,South,189,2.7,2.7,100,0.00,,,0.00,VWS V13.01,2013-08-20 07:09:00,
2013-08-20 02:13:00,67.8,67.8,29.12,South,189,3.1,3.1,100,0.00,,,0.00,VWS V13.01,2013-08-20 07:13:00,
2013-08-20 02:14:00,67.8,67.8,29.12,South,189,2.7,2.7,100,0.00,,,0.00,VWS V13.01,2013-08-20 07:14:00,
2013-08-20 02:18:00,67.6,67.6,29.12,South,189,3.1,3.1,100,0.00,,,0.00,VWS V13.01,2013-08-20 07:18:00,
2013-08-20 02:19:00,67.6,67.6,29.12,SSW,208,3.1,3.1,100,0.00,,,0.00,VWS V13.01,2013-08-20 07:19:00,
2013-08-20 02:23:00,67.6,67.6,29.12,South,185,3.6,3.6,100,0.00,,,0.00,VWS V13.01,2013-08-20 07:23:00,
2013-08-20 02:24:00,67.6,67.6,29.12,South,185,3.1,3.1,100,0.00,,,0.00,VWS V13.01,2013-08-20 07:24:00,
2013-08-20 02:28:00,67.6,67.6,29.12,SSW,199,3.1,3.1,100,0.00,,,0.00,VWS V13.01,2013-08-20 07:28:00,
2013-08-20 02:29:00,67.6,67.6,29.12,South,177,2.7,2.7,100,0.00,,,0.00,VWS V13.01,2013-08-20 07:29:00,
2013-08-20 02:33:00,67.6,67.6,29.12,South,189,3.6,3.6,100,0.00,,,0.00,VWS V13.01,2013-08-20 07:33:00,
2013-08-20 02:34:00,67.6,67.6,29.12,South,189,3.6,3.6,100,0.00,,,0.00,VWS V13.01,2013-08-20 07:34:00,
2013-08-20 02:38:00,67.5,67.5,29.12,South,189,3.1,3.1,100,0.00,,,0.00,VWS V13.01,2013-08-20 07:38:00,
2013-08-20 02:39:00,67.3,67.3,29.12,South,189,3.6,3.6,100,0.00,,,0.00,VWS V13.01,2013-08-20 07:39:00,
2013-08-20 02:43:00,67.3,67.3,29.12,South,189,2.7,2.7,100,0.00,,,0.00,VWS V13.01,2013-08-20 07:43:00,
2013-08-20 02:44:00,67.3,67.3,29.12,South,189,2.7,2.7,100,0.00,,,0.00,VWS V13.01,2013-08-20 07:44:00,
2013-08-20 02:48:00,67.3,67.3,29.12,South,189,0.0,0.0,100,0.00,,,0.00,VWS V13.01,2013-08-20 07:48:00,
2013-08-20 02:49:00,67.3,67.3,29.12,South,189,0.0,0.0,100,0.00,,,0.00,VWS V13.01,2013-08-20 07:49:00,
2013-08-20 02:53:00,67.5,67.5,29.12,South,190,5.4,5.4,100,0.00,,,0.00,VWS V13.01,2013-08-20 07:53:00,
2013-08-20 02:54:00,67.5,67.5,29.12,South,190,2.7,2.7,100,0.00,,,0.00,VWS V13.01,2013-08-20 07:54:00,
2013-08-20 02:55:00,67.5,67.5,29.12,South,189,4.9,4.9,100,0.00,,,0.00,VWS V13.01,2013-08-20 07:55:00,
2013-08-20 02:58:00,67.5,67.5,29.12,South,189,3.6,3.6,100,0.00,,,0.00,VWS V13.01,2013-08-20 07:58:00,
2013-08-20 02:59:00,67.5,67.5,29.12,South,189,3.1,3.1,100,0.00,,,0.00,VWS V13.01,2013-08-20 07:59:00,
2013-08-20 03:00:00,67.5,67.5,29.12,South,189,3.6,3.6,100,0.00,,,0.00,VWS V13.01,2013-08-20 08:00:00,
2013-08-20 03:03:00,67.5,67.5,29.12,South,182,4.0,4.0,100,0.00,,,0.00,VWS V13.01,2013-08-20 08:03:00,
2013-08-20 03:04:00,67.5,67.5,29.12,South,185,4.0,4.0,100,0.00,,,0.00,VWS V13.01,2013-08-20 08:04:00,
2013-08-20 03:05:00,67.5,67.5,29.12,South,184,4.5,4.5,100,0.00,,,0.00,VWS V13.01,2013-08-20 08:05:00,
2013-08-20 03:08:00,67.3,67.3,29.12,South,181,6.3,6.3,100,0.00,,,0.00,VWS V13.01,2013-08-20 08:08:00,
2013-08-20 03:09:00,67.1,67.1,29.12,South,180,5.8,5.8,100,0.00,,,0.00,VWS V13.01,2013-08-20 08:09:00,
2013-08-20 03:10:00,67.1,67.1,29.12,South,183,5.8,5.8,100,0.00,,,0.00,VWS V13.01,2013-08-20 08:10:00,
2013-08-20 03:13:00,66.9,66.9,29.12,South,178,5.8,5.8,100,0.00,,,0.00,VWS V13.01,2013-08-20 08:13:00,
2013-08-20 03:14:00,66.9,66.9,29.12,South,179,5.8,5.8,100,0.00,,,0.00,VWS V13.01,2013-08-20 08:14:00,
2013-08-20 03:15:00,66.9,66.9,29.12,South,173,5.4,5.4,100,0.00,,,0.00,VWS V13.01,2013-08-20 08:15:00,
2013-08-20 03:18:00,67.1,67.1,29.12,South,187,5.4,5.4,100,0.00,,,0.00,VWS V13.01,2013-08-20 08:18:00,
2013-08-20 03:19:00,67.1,67.1,29.12,South,183,4.9,4.9,100,0.00,,,0.00,VWS V13.01,2013-08-20 08:19:00,
2013-08-20 03:20:00,67.1,67.1,29.12,South,183,5.4,5.4,100,0.00,,,0.00,VWS V13.01,2013-08-20 08:20:00,
2013-08-20 03:23:00,67.1,67.1,29.12,South,185,4.9,4.9,100,0.00,,,0.00,VWS V13.01,2013-08-20 08:23:00,
2013-08-20 03:24:00,67.1,67.1,29.12,South,184,5.8,5.8,100,0.00,,,0.00,VWS V13.01,2013-08-20 08:24:00,
2013-08-20 03:25:00,67.1,67.1,29.12,South,183,5.4,5.4,100,0.00,,,0.00,VWS V13.01,2013-08-20 08:25:00,
2013-08-20 03:28:00,67.1,67.1,29.12,South,190,5.4,5.4,100,0.00,,,0.00,VWS V13.01,2013-08-20 08:28:00,
2013-08-20 03:29:00,67.1,67.1,29.12,South,182,4.9,4.9,100,0.00,,,0.00,VWS V13.01,2013-08-20 08:29:00,
2013-08-20 03:30:00,67.1,67.1,29.12,South,177,5.8,5.8,100,0.00,,,0.00,VWS V13.01,2013-08-20 08:30:00,
2013-08-20 03:33:00,66.9,66.9,29.12,South,191,3.1,3.1,100,0.00,,,0.00,VWS V13.01,2013-08-20 08:33:00,
2013-08-20 03:35:00,66.9,66.9,29.12,South,191,4.0,4.0,100,0.00,,,0.00,VWS V13.01,2013-08-20 08:35:00,
2013-08-20 03:38:00,66.7,66.7,29.12,South,189,4.5,4.5,100,0.00,,,0.00,VWS V13.01,2013-08-20 08:38:00,
2013-08-20 03:40:00,66.7,66.7,29.09,South,190,4.9,4.9,100,0.00,,,0.00,VWS V13.01,2013-08-20 08:40:00,
2013-08-20 03:43:00,66.6,66.6,29.09,South,188,4.0,4.0,100,0.00,,,0.00,VWS V13.01,2013-08-20 08:43:00,
2013-08-20 03:45:00,66.6,66.6,29.09,South,190,5.4,5.4,100,0.00,,,0.00,VWS V13.01,2013-08-20 08:45:00,
2013-08-20 03:46:00,66.6,66.6,29.09,South,187,4.0,4.0,100,0.00,,,0.00,VWS V13.01,2013-08-20 08:46:00,
2013-08-20 03:48:00,66.4,66.4,29.09,South,184,5.4,5.4,100,0.00,,,0.00,VWS V13.01,2013-08-20 08:48:00,
2013-08-20 03:49:00,66.4,66.4,29.09,South,184,5.4,5.4,100,0.00,,,0.00,VWS V13.01,2013-08-20 08:49:00,
2013-08-20 03:50:00,66.4,66.4,29.09,South,186,4.0,4.0,100,0.00,,,0.00,VWS V13.01,2013-08-20 08:50:00,
2013-08-20 03:51:00,66.4,66.4,29.09,SSW,197,4.9,4.9,100,0.00,,,0.00,VWS V13.01,2013-08-20 08:51:00,
2013-08-20 03:54:00,66.4,66.4,29.09,South,188,4.9,4.9,100,0.00,,,0.00,VWS V13.01,2013-08-20 08:54:00,
2013-08-20 03:55:00,66.4,66.4,29.09,South,189,4.9,4.9,100,0.00,,,0.00,VWS V13.01,2013-08-20 08:55:00,
2013-08-20 03:56:00,66.4,66.4,29.09,South,179,4.9,4.9,100,0.00,,,0.00,VWS V13.01,2013-08-20 08:56:00,
2013-08-20 03:59:00,66.4,66.4,29.09,South,180,3.6,3.6,100,0.00,,,0.00,VWS V13.01,2013-08-20 08:59:00,
2013-08-20 04:00:00,66.2,66.2,29.09,South,189,4.9,4.9,100,0.00,,,0.00,VWS V13.01,2013-08-20 09:00:00,
2013-08-20 04:01:00,66.2,66.2,29.09,South,189,3.6,3.6,100,0.00,,,0.00,VWS V13.01,2013-08-20 09:01:00,
2013-08-20 04:04:00,66.2,66.2,29.09,SSW,193,4.0,4.0,100,0.00,,,0.00,VWS V13.01,2013-08-20 09:04:00,
2013-08-20 04:05:00,66.2,66.2,29.09,South,188,4.9,4.9,100,0.00,,,0.00,VWS V13.01,2013-08-20 09:05:00,
2013-08-20 04:06:00,66.2,66.2,29.09,South,185,3.6,3.6,100,0.00,,,0.00,VWS V13.01,2013-08-20 09:06:00,
2013-08-20 04:09:00,66.2,66.2,29.09,South,191,4.5,4.5,100,0.00,,,0.00,VWS V13.01,2013-08-20 09:09:00,
2013-08-20 04:10:00,66.2,66.2,29.09,South,185,4.9,4.9,100,0.00,,,0.00,VWS V13.01,2013-08-20 09:10:00,
2013-08-20 04:11:00,66.2,66.2,29.09,SSW,196,4.9,4.9,100,0.00,,,0.00,VWS V13.01,2013-08-20 09:11:00,
2013-08-20 04:14:00,66.2,66.2,29.09,South,186,4.0,4.0,100,0.00,,,0.00,VWS V13.01,2013-08-20 09:14:00,
2013-08-20 04:15:00,66.2,66.2,29.09,South,186,4.5,4.5,100,0.00,,,0.00,VWS V13.01,2013-08-20 09:15:00,
2013-08-20 04:16:00,66.2,66.2,29.09,SSW,200,4.0,4.0,100,0.00,,,0.00,VWS V13.01,2013-08-20 09:16:00,
2013-08-20 04:19:00,66.0,66.0,29.09,South,190,4.9,4.9,100,0.00,,,0.00,VWS V13.01,2013-08-20 09:19:00,
2013-08-20 04:20:00,66.2,66.2,29.09,South,190,5.4,5.4,100,0.00,,,0.00,VWS V13.01,2013-08-20 09:20:00,
2013-08-20 04:21:00,66.2,66.2,29.09,South,190,4.9,4.9,100,0.00,,,0.00,VWS V13.01,2013-08-20 09:21:00,
2013-08-20 04:24:00,66.2,66.2,29.09,South,186,4.5,4.5,100,0.00,,,0.00,VWS V13.01,2013-08-20 09:24:00,
2013-08-20 04:25:00,66.4,66.4,29.09,South,183,4.5,4.5,100,0.00,,,0.00,VWS V13.01,2013-08-20 09:25:00,
2013-08-20 04:26:00,66.4,66.4,29.09,South,179,4.0,4.0,100,0.00,,,0.00,VWS V13.01,2013-08-20 09:26:00,
2013-08-20 04:29:00,66.4,66.4,29.09,South,191,5.4,5.4,100,0.00,,,0.00,VWS V13.01,2013-08-20 09:29:00,
2013-08-20 04:30:00,66.4,66.4,29.09,South,187,5.4,5.4,100,0.00,,,0.00,VWS V13.01,2013-08-20 09:30:00,
2013-08-20 04:31:00,66.4,66.4,29.09,South,189,5.4,5.4,100,0.00,,,0.00,VWS V13.01,2013-08-20 09:31:00,
2013-08-20 04:34:00,66.2,66.2,29.09,South,190,5.4,5.4,100,0.00,,,0.00,VWS V13.01,2013-08-20 09:34:00,
2013-08-20 04:35:00,66.2,66.2,29.09,South,190,4.9,4.9,100,0.00,,,0.00,VWS V13.01,2013-08-20 09:35:00,
2013-08-20 04:36:00,66.2,66.2,29.09,South,179,4.9,4.9,100,0.00,,,0.00,VWS V13.01,2013-08-20 09:36:00,
2013-08-20 04:39:00,66.2,66.2,29.09,SSW,197,4.9,4.9,100,0.00,,,0.00,VWS V13.01,2013-08-20 09:39:00,
2013-08-20 04:40:00,66.2,66.2,29.09,South,185,4.0,4.0,100,0.00,,,0.00,VWS V13.01,2013-08-20 09:40:00,
2013-08-20 04:41:00,66.2,66.2,29.09,South,182,4.0,4.0,100,0.00,,,0.00,VWS V13.01,2013-08-20 09:41:00,
2013-08-20 04:44:00,66.2,66.2,29.09,South,183,4.0,4.0,100,0.00,,,0.00,VWS V13.01,2013-08-20 09:44:00,
2013-08-20 04:45:00,66.2,66.2,29.09,South,183,4.5,4.5,100,0.00,,,0.00,VWS V13.01,2013-08-20 09:45:00,
2013-08-20 04:46:00,66.2,66.2,29.09,SSW,195,4.9,4.9,100,0.00,,,0.00,VWS V13.01,2013-08-20 09:46:00,
2013-08-20 04:49:00,66.2,66.2,29.09,South,179,4.0,4.0,100,0.00,,,0.00,VWS V13.01,2013-08-20 09:49:00,
2013-08-20 04:50:00,66.2,66.2,29.09,South,180,3.6,3.6,100,0.00,,,0.00,VWS V13.01,2013-08-20 09:50:00,
2013-08-20 04:51:00,66.2,66.2,29.09,South,178,3.1,3.1,100,0.00,,,0.00,VWS V13.01,2013-08-20 09:51:00,
2013-08-20 04:54:00,66.0,66.0,29.09,South,179,3.1,3.1,100,0.00,,,0.00,VWS V13.01,2013-08-20 09:54:00,
2013-08-20 04:55:00,66.0,66.0,29.09,South,177,3.6,3.6,100,0.00,,,0.00,VWS V13.01,2013-08-20 09:55:00,
2013-08-20 04:56:00,66.0,66.0,29.09,South,177,4.0,4.0,100,0.00,,,0.00,VWS V13.01,2013-08-20 09:56:00,
2013-08-20 04:59:00,65.8,65.8,29.09,South,178,4.0,4.0,100,0.00,,,0.00,VWS V13.01,2013-08-20 09:59:00,
2013-08-20 05:00:00,65.8,65.8,29.09,South,178,3.6,3.6,100,0.00,,,0.00,VWS V13.01,2013-08-20 10:00:00,
2013-08-20 05:01:00,65.8,65.8,29.09,South,183,4.0,4.0,100,0.00,,,0.00,VWS V13.01,2013-08-20 10:01:00,
2013-08-20 05:04:00,65.7,65.7,29.09,South,183,3.6,3.6,100,0.00,,,0.00,VWS V13.01,2013-08-20 10:04:00,
2013-08-20 05:05:00,65.7,65.7,29.09,South,183,4.0,4.0,100,0.00,,,0.00,VWS V13.01,2013-08-20 10:05:00,
2013-08-20 05:06:00,65.7,65.7,29.09,South,183,3.1,3.1,100,0.00,,,0.00,VWS V13.01,2013-08-20 10:06:00,
2013-08-20 05:09:00,65.7,65.7,29.09,South,183,3.6,3.6,100,0.00,,,0.00,VWS V13.01,2013-08-20 10:09:00,
2013-08-20 05:10:00,65.7,65.7,29.09,South,183,3.6,3.6,100,0.00,,,0.00,VWS V13.01,2013-08-20 10:10:00,
2013-08-20 05:11:00,65.7,65.7,29.09,South,183,3.1,3.1,100,0.00,,,0.00,VWS V13.01,2013-08-20 10:11:00,
2013-08-20 05:12:00,65.7,65.7,29.09,South,183,3.1,3.1,100,0.00,,,0.00,VWS V13.01,2013-08-20 10:12:00,
2013-08-20 05:14:00,65.7,65.7,29.09,South,183,3.6,3.6,100,0.00,,,0.00,VWS V13.01,2013-08-20 10:14:00,
2013-08-20 05:15:00,65.7,65.7,29.09,South,183,4.0,4.0,100,0.00,,,0.00,VWS V13.01,2013-08-20 10:15:00,
2013-08-20 05:16:00,65.7,65.7,29.09,South,183,3.1,3.1,100,0.00,,,0.00,VWS V13.01,2013-08-20 10:16:00,
2013-08-20 05:17:00,65.7,65.7,29.09,South,183,3.1,3.1,100,0.00,,,0.00,VWS V13.01,2013-08-20 10:17:00,
2013-08-20 05:20:00,65.5,65.5,29.09,South,183,3.1,3.1,100,0.00,,,0.00,VWS V13.01,2013-08-20 10:20:00,
2013-08-20 05:21:00,65.5,65.5,29.09,South,183,3.1,3.1,100,0.00,,,0.00,VWS V13.01,2013-08-20 10:21:00,
2013-08-20 05:22:00,65.5,65.5,29.09,South,183,3.1,3.1,100,0.00,,,0.00,VWS V13.01,2013-08-20 10:22:00,
2013-08-20 05:25:00,65.3,65.3,29.12,South,183,3.1,3.1,100,0.00,,,0.00,VWS V13.01,2013-08-20 10:25:00,
2013-08-20 05:26:00,65.3,65.3,29.12,South,183,3.6,3.6,100,0.00,,,0.00,VWS V13.01,2013-08-20 10:26:00,
2013-08-20 05:27:00,65.3,65.3,29.12,South,183,4.0,4.0,100,0.00,,,0.00,VWS V13.01,2013-08-20 10:27:00,
2013-08-20 05:30:00,65.3,65.3,29.12,South,183,3.1,3.1,100,0.00,,,0.00,VWS V13.01,2013-08-20 10:30:00,
2013-08-20 05:31:00,65.3,65.3,29.12,South,183,2.7,2.7,100,0.00,,,0.00,VWS V13.01,2013-08-20 10:31:00,
2013-08-20 05:32:00,65.1,65.1,29.12,South,183,3.6,3.6,100,0.00,,,0.00,VWS V13.01,2013-08-20 10:32:00,
2013-08-20 05:35:00,65.1,65.1,29.12,South,188,3.6,3.6,100,0.00,,,0.00,VWS V13.01,2013-08-20 10:35:00,
2013-08-20 05:36:00,65.1,65.1,29.12,South,188,3.1,3.1,100,0.00,,,0.00,VWS V13.01,2013-08-20 10:36:00,
2013-08-20 05:37:00,65.1,65.1,29.12,South,188,3.1,3.1,100,0.00,,,0.00,VWS V13.01,2013-08-20 10:37:00,
2013-08-20 05:40:00,65.1,65.1,29.12,South,188,3.1,3.1,100,0.00,,,0.00,VWS V13.01,2013-08-20 10:40:00,
2013-08-20 05:41:00,65.1,65.1,29.12,South,188,3.6,3.6,100,0.00,,,0.00,VWS V13.01,2013-08-20 10:41:00,
2013-08-20 05:42:00,65.1,65.1,29.12,South,188,3.6,3.6,100,0.00,,,0.00,VWS V13.01,2013-08-20 10:42:00,
2013-08-20 05:45:00,64.9,64.9,29.12,South,188,3.6,3.6,100,0.00,,,0.00,VWS V13.01,2013-08-20 10:45:00,
2013-08-20 05:46:00,64.9,64.9,29.12,South,188,4.0,4.0,100,0.00,,,0.00,VWS V13.01,2013-08-20 10:46:00,
2013-08-20 05:47:00,65.1,65.1,29.12,South,188,4.0,4.0,100,0.00,,,0.00,VWS V13.01,2013-08-20 10:47:00,
2013-08-20 05:50:00,64.9,64.9,29.12,South,188,3.6,3.6,100,0.00,,,0.00,VWS V13.01,2013-08-20 10:50:00,
2013-08-20 05:51:00,64.9,64.9,29.12,South,188,3.1,3.1,100,0.00,,,0.00,VWS V13.01,2013-08-20 10:51:00,
2013-08-20 05:52:00,64.9,64.9,29.12,South,188,4.9,4.9,100,0.00,,,0.00,VWS V13.01,2013-08-20 10:52:00,
2013-08-20 05:55:00,65.1,65.1,29.12,South,188,3.6,3.6,100,0.00,,,0.00,VWS V13.01,2013-08-20 10:55:00,
2013-08-20 05:56:00,65.1,65.1,29.12,South,188,3.6,3.6,100,0.00,,,0.00,VWS V13.01,2013-08-20 10:56:00,
2013-08-20 05:57:00,65.1,65.1,29.12,South,188,4.0,4.0,100,0.00,,,0.00,VWS V13.01,2013-08-20 10:57:00,
2013-08-20 06:00:00,64.9,64.9,29.12,South,188,3.1,3.1,100,0.00,,,0.00,VWS V13.01,2013-08-20 11:00:00,
2013-08-20 06:01:00,64.9,64.9,29.12,South,188,3.1,3.1,100,0.00,,,0.00,VWS V13.01,2013-08-20 11:01:00,
2013-08-20 06:02:00,64.9,64.9,29.12,South,188,3.1,3.1,100,0.00,,,0.00,VWS V13.01,2013-08-20 11:02:00,
2013-08-20 06:05:00,64.9,64.9,29.12,South,188,2.7,2.7,100,0.00,,,0.00,VWS V13.01,2013-08-20 11:05:00,
2013-08-20 06:06:00,64.9,64.9,29.12,South,188,4.0,4.0,100,0.00,,,0.00,VWS V13.01,2013-08-20 11:06:00,
2013-08-20 06:07:00,64.9,64.9,29.12,South,188,3.1,3.1,100,0.00,,,0.00,VWS V13.01,2013-08-20 11:07:00,
2013-08-20 06:10:00,64.9,64.9,29.12,South,188,2.7,2.7,100,0.00,,,0.00,VWS V13.01,2013-08-20 11:10:00,
2013-08-20 06:11:00,64.9,64.9,29.12,South,188,3.1,3.1,100,0.00,,,0.00,VWS V13.01,2013-08-20 11:11:00,
2013-08-20 06:12:00,64.9,64.9,29.12,South,188,0.0,0.0,100,0.00,,,0.00,VWS V13.01,2013-08-20 11:12:00,
2013-08-20 06:15:00,64.9,64.9,29.12,South,188,3.1,3.1,100,0.00,,,0.00,VWS V13.01,2013-08-20 11:15:00,
2013-08-20 06:16:00,64.9,64.9,29.12,South,188,3.1,3.1,100,0.00,,,0.00,VWS V13.01,2013-08-20 11:16:00,
2013-08-20 06:17:00,64.9,64.9,29.12,South,188,2.7,2.7,100,0.00,,,0.00,VWS V13.01,2013-08-20 11:17:00,
2013-08-20 06:18:00,64.9,64.9,29.12,South,188,3.1,3.1,100,0.00,,,0.00,VWS V13.01,2013-08-20 11:18:00,
2013-08-20 06:20:00,64.9,64.9,29.12,South,188,3.1,3.1,100,0.00,,,0.00,VWS V13.01,2013-08-20 11:20:00,
2013-08-20 06:21:00,64.9,64.9,29.12,South,188,3.1,3.1,100,0.00,,,0.00,VWS V13.01,2013-08-20 11:21:00,
2013-08-20 06:22:00,64.9,64.9,29.12,South,188,3.1,3.1,100,0.00,,,0.00,VWS V13.01,2013-08-20 11:22:00,
2013-08-20 06:23:00,64.9,64.9,29.12,South,188,2.7,2.7,100,0.00,,,0.00,VWS V13.01,2013-08-20 11:23:00,
2013-08-20 06:25:00,64.9,64.9,29.12,South,188,3.1,3.1,100,0.00,,,0.00,VWS V13.01,2013-08-20 11:25:00,
2013-08-20 06:26:00,64.9,64.9,29.12,South,188,3.1,3.1,100,0.00,,,0.00,VWS V13.01,2013-08-20 11:26:00,
2013-08-20 06:27:00,64.9,64.9,29.12,South,188,3.1,3.1,100,0.00,,,0.00,VWS V13.01,2013-08-20 11:27:00,
2013-08-20 06:28:00,64.9,64.9,29.12,South,188,4.0,4.0,100,0.00,,,0.00,VWS V13.01,2013-08-20 11:28:00,
2013-08-20 06:30:00,64.9,64.9,29.12,South,188,3.6,3.6,100,0.00,,,0.00,VWS V13.01,2013-08-20 11:30:00,
2013-08-20 06:32:00,64.9,64.9,29.12,South,188,3.1,3.1,100,0.00,,,0.00,VWS V13.01,2013-08-20 11:32:00,
2013-08-20 06:33:00,64.8,64.8,29.12,South,188,3.6,3.6,100,0.00,,,0.00,VWS V13.01,2013-08-20 11:33:00,
2013-08-20 06:35:00,64.8,64.8,29.12,South,188,3.1,3.1,100,0.00,,,0.00,VWS V13.01,2013-08-20 11:35:00,
2013-08-20 06:36:00,64.8,64.8,29.12,South,188,3.1,3.1,100,0.00,,,0.00,VWS V13.01,2013-08-20 11:36:00,
2013-08-20 06:37:00,64.8,64.8,29.12,South,188,2.7,2.7,100,0.00,,,0.00,VWS V13.01,2013-08-20 11:37:00,
2013-08-20 06:38:00,64.8,64.8,29.12,South,188,3.1,3.1,100,0.00,,,0.00,VWS V13.01,2013-08-20 11:38:00,
2013-08-20 06:40:00,64.8,64.8,29.12,South,188,3.1,3.1,100,0.00,,,0.00,VWS V13.01,2013-08-20 11:40:00,
2013-08-20 06:41:00,64.8,64.8,29.12,South,188,3.6,3.6,100,0.00,,,0.00,VWS V13.01,2013-08-20 11:41:00,
2013-08-20 06:42:00,64.6,64.6,29.12,South,188,3.1,3.1,100,0.00,,,0.00,VWS V13.01,2013-08-20 11:42:00,
2013-08-20 06:43:00,64.6,64.6,29.12,South,188,3.1,3.1,100,0.00,,,0.00,VWS V13.01,2013-08-20 11:43:00,
2013-08-20 06:45:00,64.6,64.6,29.12,South,188,3.1,3.1,100,0.00,,,0.00,VWS V13.01,2013-08-20 11:45:00,
2013-08-20 06:46:00,64.6,64.6,29.12,South,188,3.1,3.1,100,0.00,,,0.00,VWS V13.01,2013-08-20 11:46:00,
2013-08-20 06:47:00,64.6,64.6,29.12,South,188,2.7,2.7,100,0.00,,,0.00,VWS V13.01,2013-08-20 11:47:00,
2013-08-20 06:48:00,64.6,64.6,29.12,South,188,3.1,3.1,100,0.00,,,0.00,VWS V13.01,2013-08-20 11:48:00,
2013-08-20 06:50:00,64.8,64.8,29.12,South,188,4.0,4.0,100,0.00,,,0.00,VWS V13.01,2013-08-20 11:50:00,
2013-08-20 06:51:00,64.8,64.8,29.12,South,188,3.6,3.6,100,0.00,,,0.00,VWS V13.01,2013-08-20 11:51:00,
2013-08-20 06:52:00,64.9,64.9,29.12,South,188,4.0,4.0,100,0.00,,,0.00,VWS V13.01,2013-08-20 11:52:00,
2013-08-20 06:53:00,64.9,64.9,29.12,South,188,2.7,2.7,100,0.00,,,0.00,VWS V13.01,2013-08-20 11:53:00,
2013-08-20 06:55:00,65.3,65.3,29.12,South,188,2.7,2.7,100,0.00,,,0.00,VWS V13.01,2013-08-20 11:55:00,
2013-08-20 06:56:00,65.3,65.3,29.12,South,188,2.7,2.7,100,0.00,,,0.00,VWS V13.01,2013-08-20 11:56:00,
2013-08-20 06:57:00,65.5,65.5,29.12,South,188,2.7,2.7,100,0.00,,,0.00,VWS V13.01,2013-08-20 11:57:00,
2013-08-20 06:58:00,65.5,65.5,29.12,South,188,2.7,2.7,100,0.00,,,0.00,VWS V13.01,2013-08-20 11:58:00,
2013-08-20 07:00:00,65.8,65.8,29.12,South,188,2.2,2.2,100,0.00,,,0.00,VWS V13.01,2013-08-20 12:00:00,
2013-08-20 07:01:00,65.8,65.8,29.12,South,188,2.7,2.7,100,0.00,,,0.00,VWS V13.01,2013-08-20 12:01:00,
2013-08-20 07:02:00,66.0,66.0,29.12,South,187,2.7,2.7,100,0.00,,,0.00,VWS V13.01,2013-08-20 12:02:00,
2013-08-20 07:03:00,66.0,66.0,29.12,South,187,3.1,3.1,100,0.00,,,0.00,VWS V13.01,2013-08-20 12:03:00,
2013-08-20 07:06:00,66.4,66.4,29.12,South,187,2.7,2.7,100,0.00,,,0.00,VWS V13.01,2013-08-20 12:06:00,
2013-08-20 07:07:00,66.4,66.4,29.12,South,187,3.1,3.1,100,0.00,,,0.00,VWS V13.01,2013-08-20 12:07:00,
2013-08-20 07:08:00,66.6,66.6,29.12,South,187,3.1,3.1,100,0.00,,,0.00,VWS V13.01,2013-08-20 12:08:00,
2013-08-20 07:11:00,66.7,66.7,29.12,South,187,3.6,3.6,100,0.00,,,0.00,VWS V13.01,2013-08-20 12:11:00,
2013-08-20 07:12:00,66.9,66.9,29.12,South,187,0.0,0.0,100,0.00,,,0.00,VWS V13.01,2013-08-20 12:12:00,
2013-08-20 07:13:00,66.9,66.9,29.12,South,187,2.7,2.7,100,0.00,,,0.00,VWS V13.01,2013-08-20 12:13:00,
2013-08-20 07:16:00,67.1,67.1,29.12,South,187,2.7,2.7,100,0.00,,,0.00,VWS V13.01,2013-08-20 12:16:00,
2013-08-20 07:17:00,67.3,67.3,29.12,South,187,3.1,3.1,100,0.00,,,0.00,VWS V13.01,2013-08-20 12:17:00,
2013-08-20 07:18:00,67.1,67.1,29.12,South,187,4.0,4.0,100,0.00,,,0.00,VWS V13.01,2013-08-20 12:18:00,
2013-08-20 07:19:00,67.1,67.1,29.12,South,187,3.1,3.1,100,0.00,,,0.00,VWS V13.01,2013-08-20 12:19:00,
2013-08-20 07:21:00,66.9,66.9,29.12,South,187,3.6,3.6,100,0.00,,,0.00,VWS V13.01,2013-08-20 12:21:00,
2013-08-20 07:22:00,66.7,66.7,29.12,South,187,4.0,4.0,100,0.00,,,0.00,VWS V13.01,2013-08-20 12:22:00,
2013-08-20 07:23:00,66.6,66.6,29.12,South,187,5.4,5.4,100,0.00,,,0.00,VWS V13.01,2013-08-20 12:23:00,
2013-08-20 07:24:00,66.6,66.6,29.12,South,187,3.1,3.1,100,0.00,,,0.00,VWS V13.01,2013-08-20 12:24:00,
2013-08-20 07:26:00,66.6,66.6,29.15,South,189,3.6,3.6,100,0.00,,,0.00,VWS V13.01,2013-08-20 12:26:00,
2013-08-20 07:27:00,66.6,66.6,29.15,South,189,3.1,3.1,100,0.00,,,0.00,VWS V13.01,2013-08-20 12:27:00,
2013-08-20 07:28:00,66.4,66.4,29.15,South,187,4.0,4.0,100,0.00,,,0.00,VWS V13.01,2013-08-20 12:28:00,
2013-08-20 07:29:00,66.4,66.4,29.15,South,187,4.9,4.9,100,0.00,,,0.00,VWS V13.01,2013-08-20 12:29:00,
2013-08-20 07:31:00,66.2,66.2,29.15,South,187,4.9,4.9,100,0.00,,,0.00,VWS V13.01,2013-08-20 12:31:00,
2013-08-20 07:32:00,66.4,66.4,29.15,SSW,196,3.6,3.6,100,0.00,,,0.00,VWS V13.01,2013-08-20 12:32:00,
2013-08-20 07:33:00,66.6,66.6,29.15,South,186,3.6,3.6,100,0.00,,,0.00,VWS V13.01,2013-08-20 12:33:00,
2013-08-20 07:34:00,66.7,66.7,29.15,SSW,196,3.1,3.1,100,0.00,,,0.00,VWS V13.01,2013-08-20 12:34:00,
2013-08-20 07:36:00,67.6,67.6,29.15,South,182,3.6,3.6,100,0.00,,,0.00,VWS V13.01,2013-08-20 12:36:00,
2013-08-20 07:37:00,67.6,67.6,29.15,South,182,4.9,4.9,100,0.00,,,0.00,VWS V13.01,2013-08-20 12:37:00,
2013-08-20 07:38:00,67.5,67.5,29.15,South,184,4.0,4.0,100,0.00,,,0.00,VWS V13.01,2013-08-20 12:38:00,
2013-08-20 07:39:00,67.6,67.6,29.15,South,184,5.4,5.4,100,0.00,,,0.00,VWS V13.01,2013-08-20 12:39:00,
2013-08-20 07:41:00,68.2,68.2,29.15,South,190,3.6,3.6,100,0.00,,,0.00,VWS V13.01,2013-08-20 12:41:00,
2013-08-20 07:42:00,68.2,68.2,29.15,South,190,4.0,4.0,100,0.00,,,0.00,VWS V13.01,2013-08-20 12:42:00,
2013-08-20 07:43:00,68.5,68.5,29.15,South,188,5.4,5.4,100,0.00,,,0.00,VWS V13.01,2013-08-20 12:43:00,
2013-08-20 07:44:00,68.7,68.7,29.15,South,185,5.4,5.4,100,0.00,,,0.00,VWS V13.01,2013-08-20 12:44:00,
2013-08-20 07:46:00,68.9,68.9,29.15,South,188,4.9,4.9,100,0.00,,,0.00,VWS V13.01,2013-08-20 12:46:00,
2013-08-20 07:47:00,69.1,69.1,29.15,South,177,5.8,5.8,100,0.00,,,0.00,VWS V13.01,2013-08-20 12:47:00,
2013-08-20 07:48:00,69.6,69.6,29.15,South,179,5.4,5.4,100,0.00,,,0.00,VWS V13.01,2013-08-20 12:48:00,
2013-08-20 07:49:00,69.8,69.8,29.15,South,189,4.0,4.0,100,0.00,,,0.00,VWS V13.01,2013-08-20 12:49:00,
2013-08-20 07:51:00,70.0,70.0,29.15,South,190,5.4,5.4,100,0.00,,,0.00,VWS V13.01,2013-08-20 12:51:00,
2013-08-20 07:52:00,70.0,70.0,29.15,South,175,5.8,5.8,100,0.00,,,0.00,VWS V13.01,2013-08-20 12:52:00,
2013-08-20 07:53:00,70.2,70.2,29.15,South,183,6.3,6.3,100,0.00,,,0.00,VWS V13.01,2013-08-20 12:53:00,
2013-08-20 07:54:00,70.2,70.2,29.15,South,189,6.3,6.3,100,0.00,,,0.00,VWS V13.01,2013-08-20 12:54:00,
2013-08-20 07:56:00,70.5,70.5,29.15,South,184,8.1,8.1,100,0.00,,,0.00,VWS V13.01,2013-08-20 12:56:00,
2013-08-20 07:57:00,70.5,70.5,29.15,South,184,8.1,8.1,100,0.00,,,0.00,VWS V13.01,2013-08-20 12:57:00,
2013-08-20 07:58:00,70.5,70.5,29.15,South,190,5.8,5.8,100,0.00,,,0.00,VWS V13.01,2013-08-20 12:58:00,
2013-08-20 07:59:00,70.7,70.7,29.15,SSW,192,5.4,5.4,100,0.00,,,0.00,VWS V13.01,2013-08-20 12:59:00,
2013-08-20 08:01:00,71.4,71.4,29.15,SSW,192,5.8,5.8,100,0.00,,,0.00,VWS V13.01,2013-08-20 13:01:00,
2013-08-20 08:02:00,71.4,71.4,29.15,South,191,6.3,6.3,100,0.00,,,0.00,VWS V13.01,2013-08-20 13:02:00,
2013-08-20 08:03:00,71.4,71.4,29.15,South,189,5.8,5.8,100,0.00,,,0.00,VWS V13.01,2013-08-20 13:03:00,
2013-08-20 08:04:00,71.6,71.6,29.15,South,184,5.8,5.8,100,0.00,,,0.00,VWS V13.01,2013-08-20 13:04:00,
2013-08-20 08:06:00,72.0,72.0,29.15,South,178,5.8,5.8,100,0.00,,,0.00,VWS V13.01,2013-08-20 13:06:00,
2013-08-20 08:07:00,72.0,72.0,29.15,South,178,5.4,5.4,100,0.00,,,0.00,VWS V13.01,2013-08-20 13:07:00,
2013-08-20 08:08:00,72.1,72.2,29.15,South,186,6.3,6.3,100,0.00,,,0.00,VWS V13.01,2013-08-20 13:08:00,
2013-08-20 08:09:00,72.1,72.2,29.15,South,181,5.8,5.8,100,0.00,,,0.00,VWS V13.01,2013-08-20 13:09:00,
2013-08-20 08:10:00,72.0,72.0,29.15,South,190,6.3,6.3,100,0.00,,,0.00,VWS V13.01,2013-08-20 13:10:00,
2013-08-20 08:11:00,72.3,72.3,29.15,South,189,6.3,6.3,100,0.00,,,0.00,VWS V13.01,2013-08-20 13:11:00,
2013-08-20 08:12:00,72.3,72.3,29.15,South,188,6.3,6.3,100,0.00,,,0.00,VWS V13.01,2013-08-20 13:12:00,
2013-08-20 08:13:00,72.5,72.5,29.15,South,177,6.3,6.3,100,0.00,,,0.00,VWS V13.01,2013-08-20 13:13:00,
2013-08-20 08:14:00,72.5,72.5,29.15,SSW,192,4.9,4.9,100,0.00,,,0.00,VWS V13.01,2013-08-20 13:14:00,
2013-08-20 08:15:00,72.5,72.5,29.15,SSW,192,4.9,4.9,100,0.00,,,0.00,VWS V13.01,2013-08-20 13:15:00,
2013-08-20 08:17:00,72.5,72.5,29.15,SSW,194,6.3,6.3,100,0.00,,,0.00,VWS V13.01,2013-08-20 13:17:00,
2013-08-20 08:18:00,72.7,72.7,29.15,South,185,4.9,4.9,100,0.00,,,0.00,VWS V13.01,2013-08-20 13:18:00,
2013-08-20 08:19:00,72.7,72.7,29.15,South,187,5.4,5.4,100,0.00,,,0.00,VWS V13.01,2013-08-20 13:19:00,
2013-08-20 08:20:00,72.7,72.7,29.15,SSW,192,6.3,6.3,100,0.00,,,0.00,VWS V13.01,2013-08-20 13:20:00,
2013-08-20 08:22:00,73.0,73.1,29.15,South,185,6.3,6.3,100,0.00,,,0.00,VWS V13.01,2013-08-20 13:22:00,
2013-08-20 08:23:00,73.2,73.2,29.15,South,179,4.9,4.9,100,0.00,,,0.00,VWS V13.01,2013-08-20 13:23:00,
2013-08-20 08:24:00,73.8,73.8,29.15,South,185,4.9,4.9,100,0.00,,,0.00,VWS V13.01,2013-08-20 13:24:00,
2013-08-20 08:25:00,73.8,73.8,29.15,South,187,6.7,6.7,100,0.00,,,0.00,VWS V13.01,2013-08-20 13:25:00,
2013-08-20 08:27:00,73.6,73.6,29.15,South,176,6.3,6.3,100,0.00,,,0.00,VWS V13.01,2013-08-20 13:27:00,
2013-08-20 08:28:00,73.4,73.4,29.15,South,177,6.3,6.3,100,0.00,,,0.00,VWS V13.01,2013-08-20 13:28:00,
2013-08-20 08:29:00,73.4,73.4,29.15,South,177,6.3,6.3,100,0.00,,,0.00,VWS V13.01,2013-08-20 13:29:00,
2013-08-20 08:30:00,73.6,73.6,29.15,South,191,6.3,6.3,100,0.00,,,0.00,VWS V13.01,2013-08-20 13:30:00,
2013-08-20 08:32:00,74.1,74.1,29.15,South,189,5.8,5.8,100,0.00,,,0.00,VWS V13.01,2013-08-20 13:32:00,
2013-08-20 08:34:00,74.1,74.1,29.15,South,181,5.4,5.4,100,0.00,,,0.00,VWS V13.01,2013-08-20 13:34:00,
2013-08-20 08:35:00,74.5,69.7,29.15,South,176,5.4,5.4,85,0.00,,,0.00,VWS V13.01,2013-08-20 13:35:00,
2013-08-20 08:37:00,74.8,70.0,29.15,South,183,5.4,5.4,85,0.00,,,0.00,VWS V13.01,2013-08-20 13:37:00,
2013-08-20 08:39:00,74.8,70.0,29.15,South,181,5.4,5.4,85,0.00,,,0.00,VWS V13.01,2013-08-20 13:39:00,
2013-08-20 08:40:00,75.0,70.2,29.15,SSW,209,6.3,6.3,85,0.00,,,0.00,VWS V13.01,2013-08-20 13:40:00,
2013-08-20 08:42:00,75.4,70.6,29.15,South,190,4.9,4.9,85,0.00,,,0.00,VWS V13.01,2013-08-20 13:42:00,
2013-08-20 08:44:00,75.6,70.7,29.15,South,189,6.3,6.3,85,0.00,,,0.00,VWS V13.01,2013-08-20 13:44:00,
2013-08-20 08:45:00,75.4,70.6,29.15,South,187,7.6,7.6,85,0.00,,,0.00,VWS V13.01,2013-08-20 13:45:00,
2013-08-20 08:47:00,75.9,71.1,29.15,South,186,5.4,5.4,85,0.00,,,0.00,VWS V13.01,2013-08-20 13:47:00,
2013-08-20 08:49:00,76.5,64.7,29.15,South,185,5.4,5.4,67,0.00,,,0.00,VWS V13.01,2013-08-20 13:49:00,
2013-08-20 08:50:00,76.6,64.9,29.15,South,187,4.0,4.0,67,0.00,,,0.00,VWS V13.01,2013-08-20 13:50:00,
2013-08-20 08:52:00,76.8,65.0,29.15,South,179,5.4,5.4,67,0.00,,,0.00,VWS V13.01,2013-08-20 13:52:00,
2013-08-20 08:54:00,76.6,64.9,29.15,South,191,6.3,6.3,67,0.00,,,0.00,VWS V13.01,2013-08-20 13:54:00,
2013-08-20 08:55:00,75.9,64.2,29.15,South,184,8.7,8.7,67,0.00,,,0.00,VWS V13.01,2013-08-20 13:55:00,
2013-08-20 08:57:00,76.1,64.4,29.15,SSW,193,5.8,5.8,67,0.00,,,0.00,VWS V13.01,2013-08-20 13:57:00,
2013-08-20 08:59:00,76.1,64.4,29.15,South,186,8.7,8.7,67,0.00,,,0.00,VWS V13.01,2013-08-20 13:59:00,
2013-08-20 09:00:00,76.8,65.0,29.15,South,186,8.1,8.1,67,0.00,,,0.00,VWS V13.01,2013-08-20 14:00:00,
2013-08-20 09:02:00,77.0,65.2,29.15,SSW,194,5.8,5.8,67,0.00,,,0.00,VWS V13.01,2013-08-20 14:02:00,
2013-08-20 09:03:00,77.0,65.2,29.15,SSW,194,5.8,5.8,67,0.00,,,0.00,VWS V13.01,2013-08-20 14:03:00,
2013-08-20 09:04:00,76.5,64.7,29.15,South,189,10.1,10.1,67,0.00,,,0.00,VWS V13.01,2013-08-20 14:04:00,
2013-08-20 09:05:00,77.0,65.2,29.15,South,188,5.8,5.8,67,0.00,,,0.00,VWS V13.01,2013-08-20 14:05:00,
2013-08-20 09:07:00,77.4,65.6,29.15,South,186,7.6,7.6,67,0.00,,,0.00,VWS V13.01,2013-08-20 14:07:00,
2013-08-20 09:08:00,77.4,65.6,29.15,South,186,7.6,7.6,67,0.00,,,0.00,VWS V13.01,2013-08-20 14:08:00,
2013-08-20 09:09:00,77.5,65.7,29.15,South,188,6.3,6.3,67,0.00,,,0.00,VWS V13.01,2013-08-20 14:09:00,
2013-08-20 09:10:00,77.7,65.9,29.15,South,181,7.6,7.6,67,0.00,,,0.00,VWS V13.01,2013-08-20 14:10:00,
2013-08-20 09:13:00,78.3,60.8,29.15,South,183,6.7,6.7,55,0.00,,,0.00,VWS V13.01,2013-08-20 14:13:00,
2013-08-20 09:14:00,78.6,66.8,29.15,South,185,6.3,6.3,67,0.00,,,0.00,VWS V13.01,2013-08-20 14:14:00,
2013-08-20 09:15:00,78.8,66.9,29.15,SSW,194,6.3,6.3,67,0.00,,,0.00,VWS V13.01,2013-08-20 14:15:00,
2013-08-20 09:16:00,78.3,60.8,29.15,SSW,198,7.6,7.6,55,0.00,,,0.00,VWS V13.01,2013-08-20 14:16:00,
2013-08-20 09:18:00,78.1,60.6,29.15,South,189,7.6,7.6,55,0.00,,,0.00,VWS V13.01,2013-08-20 14:18:00,
2013-08-20 09:19:00,78.4,61.0,29.15,South,191,6.3,6.3,55,0.00,,,0.00,VWS V13.01,2013-08-20 14:19:00,
2013-08-20 09:20:00,78.8,58.0,29.15,South,182,5.8,5.8,49,0.00,,,0.00,VWS V13.01,2013-08-20 14:20:00,
2013-08-20 09:21:00,78.8,58.0,29.15,SSW,196,8.1,8.1,49,0.00,,,0.00,VWS V13.01,2013-08-20 14:21:00,
2013-08-20 09:23:00,78.1,60.6,29.15,South,184,7.6,7.6,55,0.00,,,0.00,VWS V13.01,2013-08-20 14:23:00,
2013-08-20 09:24:00,78.4,61.0,29.15,SSW,193,8.7,8.7,55,0.00,,,0.00,VWS V13.01,2013-08-20 14:24:00,
2013-08-20 09:25:00,78.8,58.0,29.15,South,177,7.6,7.6,49,0.00,,,0.00,VWS V13.01,2013-08-20 14:25:00,
2013-08-20 09:26:00,79.2,58.4,29.15,South,188,7.6,7.6,49,0.00,,,0.00,VWS V13.01,2013-08-20 14:26:00,
2013-08-20 09:28:00,79.0,58.2,29.15,South,181,5.8,5.8,49,0.00,,,0.00,VWS V13.01,2013-08-20 14:28:00,
2013-08-20 09:29:00,80.2,59.4,29.15,SSW,198,5.4,5.4,49,0.00,,,0.00,VWS V13.01,2013-08-20 14:29:00,
2013-08-20 09:30:00,80.4,59.5,29.15,South,180,8.1,8.1,49,0.00,,,0.00,VWS V13.01,2013-08-20 14:30:00,
2013-08-20 09:31:00,79.5,58.7,29.15,SSW,192,8.3,8.3,49,0.00,,,0.00,VWS V13.01,2013-08-20 14:31:00,
2013-08-20 09:33:00,80.1,59.2,29.15,SSW,197,6.3,6.3,49,0.00,,,0.00,VWS V13.01,2013-08-20 14:33:00,
2013-08-20 09:34:00,79.7,58.9,29.15,South,186,7.6,7.6,49,0.00,,,0.00,VWS V13.01,2013-08-20 14:34:00,
2013-08-20 09:35:00,79.9,59.0,29.15,South,190,6.3,6.3,49,0.00,,,0.00,VWS V13.01,2013-08-20 14:35:00,
2013-08-20 09:36:00,79.9,59.0,29.15,South,180,8.1,8.1,49,0.00,,,0.00,VWS V13.01,2013-08-20 14:36:00,
2013-08-20 09:38:00,79.5,58.7,29.15,SSW,196,5.8,5.8,49,0.00,,,0.00,VWS V13.01,2013-08-20 14:38:00,
2013-08-20 09:39:00,80.1,59.2,29.15,South,176,6.3,6.3,49,0.00,,,0.00,VWS V13.01,2013-08-20 14:39:00,
2013-08-20 09:40:00,80.1,59.2,29.15,South,181,8.1,8.1,49,0.00,,,0.00,VWS V13.01,2013-08-20 14:40:00,
2013-08-20 09:41:00,79.9,59.0,29.15,South,179,8.3,8.3,49,0.00,,,0.00,VWS V13.01,2013-08-20 14:41:00,
2013-08-20 09:43:00,79.9,59.0,29.15,South,191,8.1,8.1,49,0.00,,,0.00,VWS V13.01,2013-08-20 14:43:00,
2013-08-20 09:44:00,80.2,59.4,29.15,SSW,194,7.6,7.6,49,0.00,,,0.00,VWS V13.01,2013-08-20 14:44:00,
2013-08-20 09:45:00,80.2,59.4,29.15,South,177,7.6,7.6,49,0.00,,,0.00,VWS V13.01,2013-08-20 14:45:00,
2013-08-20 09:46:00,80.2,59.4,29.15,South,191,8.7,8.7,49,0.00,,,0.00,VWS V13.01,2013-08-20 14:46:00,
2013-08-20 09:48:00,80.2,59.4,29.15,South,171,8.1,8.1,49,0.00,,,0.00,VWS V13.01,2013-08-20 14:48:00,
2013-08-20 09:49:00,80.8,59.9,29.15,South,184,7.6,7.6,49,0.00,,,0.00,VWS V13.01,2013-08-20 14:49:00,
2013-08-20 09:50:00,80.6,59.7,29.15,SSW,194,7.2,7.2,49,0.00,,,0.00,VWS V13.01,2013-08-20 14:50:00,
2013-08-20 09:51:00,80.4,59.5,29.15,South,172,7.6,7.6,49,0.00,,,0.00,VWS V13.01,2013-08-20 14:51:00,
2013-08-20 09:53:00,80.8,59.9,29.15,South,179,5.8,5.8,49,0.00,,,0.00,VWS V13.01,2013-08-20 14:53:00,
2013-08-20 09:54:00,81.7,60.7,29.15,South,178,5.8,5.8,49,0.00,,,0.00,VWS V13.01,2013-08-20 14:54:00,
2013-08-20 09:55:00,81.1,60.2,29.15,South,189,8.3,8.3,49,0.00,,,0.00,VWS V13.01,2013-08-20 14:55:00,
2013-08-20 09:56:00,81.3,60.3,29.15,South,177,5.8,5.8,49,0.00,,,0.00,VWS V13.01,2013-08-20 14:56:00,
2013-08-20 09:58:00,82.0,61.0,29.15,South,185,5.8,5.8,49,0.00,,,0.00,VWS V13.01,2013-08-20 14:58:00,
2013-08-20 10:00:00,82.4,57.7,29.15,South,185,8.1,8.1,43,0.00,,,0.00,VWS V13.01,2013-08-20 15:00:00,
2013-08-20 10:01:00,82.4,57.7,29.15,South,191,5.8,5.8,43,0.00,,,0.00,VWS V13.01,2013-08-20 15:01:00,
2013-08-20 10:03:00,82.9,58.2,29.15,SSW,196,5.8,5.8,43,0.00,,,0.00,VWS V13.01,2013-08-20 15:03:00,
2013-08-20 10:05:00,82.2,61.2,29.15,SSW,192,7.6,7.6,49,0.00,,,0.00,VWS V13.01,2013-08-20 15:05:00,
2013-08-20 10:06:00,82.8,58.0,29.15,SSE,167,5.8,5.8,43,0.00,,,0.00,VWS V13.01,2013-08-20 15:06:00,
2013-08-20 10:08:00,83.1,58.3,29.15,SSW,198,8.3,8.3,43,0.00,,,0.00,VWS V13.01,2013-08-20 15:08:00,
2013-08-20 10:09:00,83.3,58.5,29.15,South,184,6.3,6.3,43,0.00,,,0.00,VWS V13.01,2013-08-20 15:09:00,
2013-08-20 10:10:00,83.5,58.7,29.15,SSW,192,6.3,6.3,43,0.00,,,0.00,VWS V13.01,2013-08-20 15:10:00,
2013-08-20 10:11:00,84.6,59.6,29.15,South,177,5.4,5.4,43,0.00,,,0.00,VWS V13.01,2013-08-20 15:11:00,
2013-08-20 10:13:00,83.7,58.8,29.15,South,185,5.8,5.8,43,0.00,,,0.00,VWS V13.01,2013-08-20 15:13:00,
2013-08-20 10:14:00,84.0,59.1,29.15,South,191,6.3,6.3,43,0.00,,,0.00,VWS V13.01,2013-08-20 15:14:00,
2013-08-20 10:15:00,82.6,57.8,29.15,SSW,192,9.6,9.6,43,0.00,,,0.00,VWS V13.01,2013-08-20 15:15:00,
2013-08-20 10:16:00,82.4,57.7,29.15,South,176,7.6,7.6,43,0.00,,,0.00,VWS V13.01,2013-08-20 15:16:00,
2013-08-20 10:18:00,82.2,61.2,29.15,South,176,8.7,8.7,49,0.00,,,0.00,VWS V13.01,2013-08-20 15:18:00,
2013-08-20 10:19:00,82.2,61.2,29.15,South,177,11.0,11.0,49,0.00,,,0.00,VWS V13.01,2013-08-20 15:19:00,
2013-08-20 10:20:00,82.6,57.8,29.15,South,189,7.6,7.6,43,0.00,,,0.00,VWS V13.01,2013-08-20 15:20:00,
2013-08-20 10:21:00,83.1,58.3,29.15,South,178,5.8,5.8,43,0.00,,,0.00,VWS V13.01,2013-08-20 15:21:00,
2013-08-20 10:23:00,84.2,59.3,29.15,South,186,3.6,3.6,43,0.00,,,0.00,VWS V13.01,2013-08-20 15:23:00,
2013-08-20 10:24:00,85.3,60.3,29.15,South,177,7.2,7.2,43,0.00,,,0.00,VWS V13.01,2013-08-20 15:24:00,
2013-08-20 10:25:00,84.9,60.0,29.15,South,171,6.3,6.3,43,0.00,,,0.00,VWS V13.01,2013-08-20 15:25:00,
2013-08-20 10:26:00,84.4,59.5,29.15,South,187,8.1,8.1,43,0.00,,,0.00,VWS V13.01,2013-08-20 15:26:00,
2013-08-20 10:28:00,85.5,60.4,29.15,SSW,197,6.3,6.3,43,0.00,,,0.00,VWS V13.01,2013-08-20 15:28:00,
2013-08-20 10:29:00,85.1,60.1,29.15,SSW,193,6.3,6.3,43,0.00,,,0.00,VWS V13.01,2013-08-20 15:29:00,
2013-08-20 10:30:00,84.2,59.3,29.15,SSW,204,7.6,7.6,43,0.00,,,0.00,VWS V13.01,2013-08-20 15:30:00,
2013-08-20 10:31:00,83.5,58.7,29.15,South,185,9.6,9.6,43,0.00,,,0.00,VWS V13.01,2013-08-20 15:31:00,
2013-08-20 10:32:00,83.3,58.5,29.15,South,185,8.1,8.1,43,0.00,,,0.00,VWS V13.01,2013-08-20 15:32:00,
2013-08-20 10:34:00,84.0,59.1,29.15,South,177,7.6,7.6,43,0.00,,,0.00,VWS V13.01,2013-08-20 15:34:00,
2013-08-20 10:36:00,84.4,59.5,29.15,South,179,5.8,5.8,43,0.00,,,0.00,VWS V13.01,2013-08-20 15:36:00,
2013-08-20 10:37:00,82.4,57.7,29.15,South,184,10.1,10.1,43,0.00,,,0.00,VWS V13.01,2013-08-20 15:37:00,
2013-08-20 10:39:00,82.4,57.7,29.15,South,185,8.3,8.3,43,0.00,,,0.00,VWS V13.01,2013-08-20 15:39:00,
2013-08-20 10:41:00,82.4,57.7,29.15,South,178,6.7,6.7,43,0.00,,,0.00,VWS V13.01,2013-08-20 15:41:00,
2013-08-20 10:42:00,82.6,57.8,29.15,South,179,8.1,8.1,43,0.00,,,0.00,VWS V13.01,2013-08-20 15:42:00,
2013-08-20 10:44:00,82.4,57.7,29.15,South,182,8.7,8.7,43,0.00,,,0.00,VWS V13.01,2013-08-20 15:44:00,
2013-08-20 10:46:00,84.9,60.0,29.15,SSW,192,8.1,8.1,43,0.00,,,0.00,VWS V13.01,2013-08-20 15:46:00,
2013-08-20 10:47:00,84.7,59.8,29.15,South,187,8.1,8.1,43,0.00,,,0.00,VWS V13.01,2013-08-20 15:47:00,
2013-08-20 10:49:00,84.4,59.5,29.15,South,181,8.1,8.1,43,0.00,,,0.00,VWS V13.01,2013-08-20 15:49:00,
2013-08-20 10:51:00,83.7,58.8,29.15,South,186,8.3,8.3,43,0.00,,,0.00,VWS V13.01,2013-08-20 15:51:00,
2013-08-20 10:52:00,84.4,59.5,29.15,South,183,6.3,6.3,43,0.00,,,0.00,VWS V13.01,2013-08-20 15:52:00,
2013-08-20 10:54:00,82.8,58.0,29.15,SSW,193,8.1,8.1,43,0.00,,,0.00,VWS V13.01,2013-08-20 15:54:00,
2013-08-20 10:56:00,83.3,58.5,29.15,South,187,7.2,7.2,43,0.00,,,0.00,VWS V13.01,2013-08-20 15:56:00,
2013-08-20 10:57:00,84.7,59.8,29.15,SSW,194,8.1,8.1,43,0.00,,,0.00,VWS V13.01,2013-08-20 15:57:00,
2013-08-20 10:59:00,84.6,59.6,29.15,South,189,7.6,7.6,43,0.00,,,0.00,VWS V13.01,2013-08-20 15:59:00,
2013-08-20 11:01:00,85.3,60.3,29.15,South,178,10.1,10.1,43,0.00,,,0.00,VWS V13.01,2013-08-20 16:01:00,
2013-08-20 11:02:00,85.3,60.3,29.15,SSW,192,9.2,9.2,43,0.00,,,0.00,VWS V13.01,2013-08-20 16:02:00,
2013-08-20 11:04:00,85.3,60.3,29.15,SSW,202,10.1,10.1,43,0.00,,,0.00,VWS V13.01,2013-08-20 16:04:00,
2013-08-20 11:06:00,85.1,60.1,29.15,South,184,8.7,8.7,43,0.00,,,0.00,VWS V13.01,2013-08-20 16:06:00,
2013-08-20 11:07:00,86.4,61.2,29.15,South,190,5.8,5.8,43,0.00,,,0.00,VWS V13.01,2013-08-20 16:07:00,
2013-08-20 11:09:00,86.4,61.2,29.15,South,184,8.3,8.3,43,0.00,,,0.00,VWS V13.01,2013-08-20 16:09:00,
2013-08-20 11:10:00,86.0,60.9,29.15,South,180,8.1,8.1,43,0.00,,,0.00,VWS V13.01,2013-08-20 16:10:00,
2013-08-20 11:11:00,86.0,60.9,29.15,SSW,193,8.7,8.7,43,0.00,,,0.00,VWS V13.01,2013-08-20 16:11:00,
2013-08-20 11:12:00,85.3,60.3,29.15,South,189,10.5,10.5,43,0.00,,,0.00,VWS V13.01,2013-08-20 16:12:00,
2013-08-20 11:14:00,85.5,60.4,29.15,South,179,7.6,7.6,43,0.00,,,0.00,VWS V13.01,2013-08-20 16:14:00,
2013-08-20 11:15:00,85.5,60.4,29.15,SSW,192,9.2,9.2,43,0.00,,,0.00,VWS V13.01,2013-08-20 16:15:00,
2013-08-20 11:16:00,85.5,60.4,29.15,South,190,11.0,11.0,43,0.00,,,0.00,VWS V13.01,2013-08-20 16:16:00,
2013-08-20 11:17:00,85.5,60.4,29.15,South,175,4.0,4.0,43,0.00,,,0.00,VWS V13.01,2013-08-20 16:17:00,
2013-08-20 11:19:00,86.9,61.7,29.15,South,171,3.6,3.6,43,0.00,,,0.00,VWS V13.01,2013-08-20 16:19:00,
2013-08-20 11:20:00,86.9,61.7,29.15,SSW,202,3.1,3.1,43,0.00,,,0.00,VWS V13.01,2013-08-20 16:20:00,
2013-08-20 11:21:00,89.2,59.6,29.15,South,180,6.7,6.7,37,0.00,,,0.00,VWS V13.01,2013-08-20 16:21:00,
2013-08-20 11:22:00,89.2,59.6,29.15,South,180,6.7,6.7,37,0.00,,,0.00,VWS V13.01,2013-08-20 16:22:00,
2013-08-20 11:23:00,89.6,59.9,29.15,South,172,3.6,3.6,37,0.00,,,0.00,VWS V13.01,2013-08-20 16:23:00,
2013-08-20 11:24:00,86.9,61.7,29.15,South,180,7.6,7.6,43,0.00,,,0.00,VWS V13.01,2013-08-20 16:24:00,
2013-08-20 11:25:00,87.6,62.4,29.15,South,178,6.3,6.3,43,0.00,,,0.00,VWS V13.01,2013-08-20 16:25:00,
2013-08-20 11:27:00,86.2,61.1,29.15,South,180,8.3,8.3,43,0.00,,,0.00,VWS V13.01,2013-08-20 16:27:00,
2013-08-20 11:28:00,86.9,61.7,29.15,SSE,168,6.7,6.7,43,0.00,,,0.00,VWS V13.01,2013-08-20 16:28:00,
2013-08-20 11:30:00,88.9,59.3,29.15,South,186,3.1,3.1,37,0.00,,,0.00,VWS V13.01,2013-08-20 16:30:00,
2013-08-20 11:32:00,87.3,62.1,29.15,SSW,196,6.3,6.3,43,0.00,,,0.00,VWS V13.01,2013-08-20 16:32:00,
2013-08-20 11:33:00,84.9,60.0,29.15,SSW,196,9.6,9.6,43,0.00,,,0.00,VWS V13.01,2013-08-20 16:33:00,
2013-08-20 11:35:00,84.9,60.0,29.15,South,182,8.1,8.1,43,0.00,,,0.00,VWS V13.01,2013-08-20 16:35:00,
2013-08-20 11:37:00,83.8,59.0,29.15,South,177,8.3,8.3,43,0.00,,,0.00,VWS V13.01,2013-08-20 16:37:00,
2013-08-20 11:38:00,83.5,58.7,29.15,South,187,8.3,8.3,43,0.00,,,0.00,VWS V13.01,2013-08-20 16:38:00,
2013-08-20 11:40:00,83.1,58.3,29.15,South,186,8.3,8.3,43,0.00,,,0.00,VWS V13.01,2013-08-20 16:40:00,
2013-08-20 11:42:00,83.5,58.7,29.15,South,179,7.6,7.6,43,0.00,,,0.00,VWS V13.01,2013-08-20 16:42:00,
2013-08-20 11:43:00,84.0,59.1,29.15,South,171,5.8,5.8,43,0.00,,,0.00,VWS V13.01,2013-08-20 16:43:00,
2013-08-20 11:45:00,84.2,59.3,29.15,SSW,197,8.3,8.3,43,0.00,,,0.00,VWS V13.01,2013-08-20 16:45:00,
2013-08-20 11:46:00,84.4,59.5,29.15,SSE,166,8.3,8.3,43,0.00,,,0.00,VWS V13.01,2013-08-20 16:46:00,
2013-08-20 11:47:00,84.2,59.3,29.15,South,184,7.6,7.6,43,0.00,,,0.00,VWS V13.01,2013-08-20 16:47:00,
2013-08-20 11:49:00,84.0,59.1,29.15,South,177,8.3,8.3,43,0.00,,,0.00,VWS V13.01,2013-08-20 16:49:00,
2013-08-20 11:50:00,84.7,59.8,29.15,South,184,8.1,8.1,43,0.00,,,0.00,VWS V13.01,2013-08-20 16:50:00,
2013-08-20 11:51:00,84.7,59.8,29.15,South,169,7.6,7.6,43,0.00,,,0.00,VWS V13.01,2013-08-20 16:51:00,
2013-08-20 11:52:00,84.7,59.8,29.15,South,187,11.0,11.0,43,0.00,,,0.00,VWS V13.01,2013-08-20 16:52:00,
2013-08-20 11:53:00,84.6,59.6,29.15,South,190,8.3,8.3,43,0.00,,,0.00,VWS V13.01,2013-08-20 16:53:00,
2013-08-20 11:54:00,84.6,59.6,29.15,South,185,8.3,8.3,43,0.00,,,0.00,VWS V13.01,2013-08-20 16:54:00,
2013-08-20 11:55:00,85.3,60.3,29.15,South,182,4.9,4.9,43,0.00,,,0.00,VWS V13.01,2013-08-20 16:55:00,
2013-08-20 11:56:00,86.0,60.9,29.15,South,185,2.7,2.7,43,0.00,,,0.00,VWS V13.01,2013-08-20 16:56:00,
2013-08-20 11:57:00,85.8,60.8,29.15,South,180,5.4,5.4,43,0.00,,,0.00,VWS V13.01,2013-08-20 16:57:00,
2013-08-20 11:58:00,86.0,60.9,29.15,SSW,202,3.6,3.6,43,0.00,,,0.00,VWS V13.01,2013-08-20 16:58:00,
2013-08-20 11:59:00,86.0,60.9,29.15,SSE,162,8.3,8.3,43,0.00,,,0.00,VWS V13.01,2013-08-20 16:59:00,
2013-08-20 12:00:00,84.6,59.6,29.15,SSW,198,10.5,10.5,43,0.00,,,0.00,VWS V13.01,2013-08-20 17:00:00,
2013-08-20 12:01:00,84.0,59.1,29.15,South,183,8.3,8.3,43,0.00,,,0.00,VWS V13.01,2013-08-20 17:01:00,
2013-08-20 12:02:00,84.4,59.5,29.15,South,177,5.8,5.8,43,0.00,,,0.00,VWS V13.01,2013-08-20 17:02:00,
2013-08-20 12:03:00,84.4,59.5,29.15,SSW,195,8.1,8.1,43,0.00,,,0.00,VWS V13.01,2013-08-20 17:03:00,
2013-08-20 12:04:00,84.7,59.8,29.15,SSW,196,8.3,8.3,43,0.00,,,0.00,VWS V13.01,2013-08-20 17:04:00,
2013-08-20 12:05:00,84.4,59.5,29.15,South,177,10.1,10.1,43,0.00,,,0.00,VWS V13.01,2013-08-20 17:05:00,
2013-08-20 12:06:00,84.0,59.1,29.15,South,189,12.3,12.3,43,0.00,,,0.00,VWS V13.01,2013-08-20 17:06:00,
2013-08-20 12:07:00,83.5,58.7,29.15,South,179,10.5,10.5,43,0.00,,,0.00,VWS V13.01,2013-08-20 17:07:00,
2013-08-20 12:08:00,83.5,58.7,29.15,South,190,8.3,8.3,43,0.00,,,0.00,VWS V13.01,2013-08-20 17:08:00,
2013-08-20 12:09:00,83.7,58.8,29.15,SSW,194,8.1,8.1,43,0.00,,,0.00,VWS V13.01,2013-08-20 17:09:00,
2013-08-20 12:10:00,83.5,58.7,29.15,South,185,8.3,8.3,43,0.00,,,0.00,VWS V13.01,2013-08-20 17:10:00,
2013-08-20 12:11:00,83.8,59.0,29.15,SSW,194,4.0,4.0,43,0.00,,,0.00,VWS V13.01,2013-08-20 17:11:00,
2013-08-20 12:13:00,83.8,59.0,29.15,South,185,13.2,13.2,43,0.00,,,0.00,VWS V13.01,2013-08-20 17:13:00,
2013-08-20 12:14:00,83.7,58.8,29.15,SSW,192,10.1,10.1,43,0.00,,,0.00,VWS V13.01,2013-08-20 17:14:00,
2013-08-20 12:15:00,84.2,59.3,29.15,SSW,193,8.3,8.3,43,0.00,,,0.00,VWS V13.01,2013-08-20 17:15:00,
2013-08-20 12:16:00,84.7,59.8,29.15,South,173,11.4,11.4,43,0.00,,,0.00,VWS V13.01,2013-08-20 17:16:00,
2013-08-20 12:18:00,84.2,59.3,29.15,South,177,11.0,11.0,43,0.00,,,0.00,VWS V13.01,2013-08-20 17:18:00,
2013-08-20 12:19:00,84.4,59.5,29.15,South,186,8.1,8.1,43,0.00,,,0.00,VWS V13.01,2013-08-20 17:19:00,
2013-08-20 12:20:00,84.6,59.6,29.15,South,183,10.5,10.5,43,0.00,,,0.00,VWS V13.01,2013-08-20 17:20:00,
2013-08-20 12:21:00,84.0,59.1,29.15,South,183,8.7,8.7,43,0.00,,,0.00,VWS V13.01,2013-08-20 17:21:00,
2013-08-20 12:23:00,84.4,59.5,29.15,South,182,8.3,8.3,43,0.00,,,0.00,VWS V13.01,2013-08-20 17:23:00,
2013-08-20 12:24:00,85.1,60.1,29.15,South,180,7.6,7.6,43,0.00,,,0.00,VWS V13.01,2013-08-20 17:24:00,
2013-08-20 12:25:00,84.9,60.0,29.15,South,175,8.3,8.3,43,0.00,,,0.00,VWS V13.01,2013-08-20 17:25:00,
2013-08-20 12:26:00,85.1,60.1,29.15,South,191,6.3,6.3,43,0.00,,,0.00,VWS V13.01,2013-08-20 17:26:00,
2013-08-20 12:28:00,84.9,60.0,29.15,South,185,8.1,8.1,43,0.00,,,0.00,VWS V13.01,2013-08-20 17:28:00,
2013-08-20 12:29:00,84.9,60.0,29.15,SSW,192,8.7,8.7,43,0.00,,,0.00,VWS V13.01,2013-08-20 17:29:00,
2013-08-20 12:30:00,84.9,60.0,29.15,South,181,8.1,8.1,43,0.00,,,0.00,VWS V13.01,2013-08-20 17:30:00,
2013-08-20 12:31:00,84.4,59.5,29.15,South,183,8.1,8.1,43,0.00,,,0.00,VWS V13.01,2013-08-20 17:31:00,
2013-08-20 12:33:00,84.2,59.3,29.15,South,185,10.1,10.1,43,0.00,,,0.00,VWS V13.01,2013-08-20 17:33:00,
2013-08-20 12:34:00,84.9,60.0,29.15,SSW,193,5.4,5.4,43,0.00,,,0.00,VWS V13.01,2013-08-20 17:34:00,
2013-08-20 12:35:00,85.5,60.4,29.15,South,183,6.3,6.3,43,0.00,,,0.00,VWS V13.01,2013-08-20 17:35:00,
2013-08-20 12:36:00,85.8,60.8,29.15,South,187,8.7,8.7,43,0.00,,,0.00,VWS V13.01,2013-08-20 17:36:00,
2013-08-20 12:38:00,86.0,60.9,29.15,SSW,199,5.8,5.8,43,0.00,,,0.00,VWS V13.01,2013-08-20 17:38:00,
2013-08-20 12:39:00,86.7,61.6,29.15,SSW,193,6.3,6.3,43,0.00,,,0.00,VWS V13.01,2013-08-20 17:39:00,
2013-08-20 12:40:00,87.1,61.9,29.15,SSW,205,4.0,4.0,43,0.00,,,0.00,VWS V13.01,2013-08-20 17:40:00,
2013-08-20 12:42:00,87.3,62.1,29.15,South,174,5.8,5.8,43,0.00,,,0.00,VWS V13.01,2013-08-20 17:42:00,
2013-08-20 12:43:00,87.8,58.3,29.15,SSW,199,2.7,2.7,37,0.00,,,0.00,VWS V13.01,2013-08-20 17:43:00,
2013-08-20 12:45:00,87.6,62.4,29.15,SSE,165,6.3,6.3,43,0.00,,,0.00,VWS V13.01,2013-08-20 17:45:00,
2013-08-20 12:46:00,86.4,61.2,29.15,SSW,193,10.5,10.5,43,0.00,,,0.00,VWS V13.01,2013-08-20 17:46:00,
2013-08-20 12:47:00,87.1,61.9,29.15,South,183,6.3,6.3,43,0.00,,,0.00,VWS V13.01,2013-08-20 17:47:00,
2013-08-20 12:48:00,86.4,61.2,29.15,South,184,3.6,3.6,43,0.00,,,0.00,VWS V13.01,2013-08-20 17:48:00,
2013-08-20 12:50:00,86.7,61.6,29.15,SSW,205,9.2,9.2,43,0.00,,,0.00,VWS V13.01,2013-08-20 17:50:00,
2013-08-20 12:51:00,86.4,61.2,29.15,South,178,8.7,8.7,43,0.00,,,0.00,VWS V13.01,2013-08-20 17:51:00,
2013-08-20 12:52:00,86.4,61.2,29.15,South,185,6.3,6.3,43,0.00,,,0.00,VWS V13.01,2013-08-20 17:52:00,
2013-08-20 12:53:00,85.6,60.6,29.15,SSE,168,7.6,7.6,43,0.00,,,0.00,VWS V13.01,2013-08-20 17:53:00,
2013-08-20 12:55:00,85.8,60.8,29.15,South,183,5.8,5.8,43,0.00,,,0.00,VWS V13.01,2013-08-20 17:55:00,
2013-08-20 12:56:00,86.5,61.4,29.15,South,183,5.4,5.4,43,0.00,,,0.00,VWS V13.01,2013-08-20 17:56:00,
2013-08-20 12:57:00,87.1,61.9,29.15,SW,225,2.7,2.7,43,0.00,,,0.00,VWS V13.01,2013-08-20 17:57:00,
2013-08-20 12:58:00,88.3,58.8,29.15,SSW,203,3.6,3.6,37,0.00,,,0.00,VWS V13.01,2013-08-20 17:58:00,
2013-08-20 12:59:00,89.1,59.4,29.15,SSW,200,4.0,4.0,37,0.00,,,0.00,VWS V13.01,2013-08-20 17:59:00,
2013-08-20 13:00:00,88.9,59.3,29.15,South,172,8.7,8.7,37,0.00,,,0.00,VWS V13.01,2013-08-20 18:00:00,
2013-08-20 13:01:00,88.7,59.1,29.15,South,179,8.1,8.1,37,0.00,,,0.00,VWS V13.01,2013-08-20 18:01:00,
2013-08-20 13:02:00,88.2,58.6,29.15,South,181,8.3,8.3,37,0.00,,,0.00,VWS V13.01,2013-08-20 18:02:00,
2013-08-20 13:03:00,87.4,62.2,29.15,South,191,11.0,11.0,43,0.00,,,0.00,VWS V13.01,2013-08-20 18:03:00,
2013-08-20 13:04:00,87.1,61.9,29.15,South,190,10.5,10.5,43,0.00,,,0.00,VWS V13.01,2013-08-20 18:04:00,
2013-08-20 13:05:00,86.2,61.1,29.15,South,176,10.5,10.5,43,0.00,,,0.00,VWS V13.01,2013-08-20 18:05:00,
2013-08-20 13:06:00,86.2,61.1,29.15,South,190,8.7,8.7,43,0.00,,,0.00,VWS V13.01,2013-08-20 18:06:00,
2013-08-20 13:07:00,86.5,61.4,29.15,SSW,194,8.3,8.3,43,0.00,,,0.00,VWS V13.01,2013-08-20 18:07:00,
2013-08-20 13:08:00,87.1,61.9,29.15,South,189,8.1,8.1,43,0.00,,,0.00,VWS V13.01,2013-08-20 18:08:00,
2013-08-20 13:09:00,87.3,62.1,29.15,South,180,7.6,7.6,43,0.00,,,0.00,VWS V13.01,2013-08-20 18:09:00,
2013-08-20 13:10:00,86.9,61.7,29.15,SSE,165,6.3,6.3,43,0.00,,,0.00,VWS V13.01,2013-08-20 18:10:00,
2013-08-20 13:12:00,86.5,61.4,29.15,South,177,8.1,8.1,43,0.00,,,0.00,VWS V13.01,2013-08-20 18:12:00,
2013-08-20 13:13:00,86.9,61.7,29.15,South,180,8.3,8.3,43,0.00,,,0.00,VWS V13.01,2013-08-20 18:13:00,
2013-08-20 13:14:00,87.3,62.1,29.15,SSW,196,8.1,8.1,43,0.00,,,0.00,VWS V13.01,2013-08-20 18:14:00,
2013-08-20 13:15:00,88.0,58.5,29.15,South,180,8.3,8.3,37,0.00,,,0.00,VWS V13.01,2013-08-20 18:15:00,
2013-08-20 13:17:00,87.8,58.3,29.15,SSE,154,6.3,6.3,37,0.00,,,0.00,VWS V13.01,2013-08-20 18:17:00,
2013-08-20 13:18:00,89.2,59.6,29.15,SSW,197,7.6,7.6,37,0.00,,,0.00,VWS V13.01,2013-08-20 18:18:00,
2013-08-20 13:19:00,89.2,59.6,29.15,South,182,6.3,6.3,37,0.00,,,0.00,VWS V13.01,2013-08-20 18:19:00,
2013-08-20 13:20:00,91.2,61.3,29.15,SSW,194,3.1,3.1,37,0.00,,,0.00,VWS V13.01,2013-08-20 18:20:00,
2013-08-20 13:22:00,90.9,61.0,29.15,South,182,7.6,7.6,37,0.00,,,0.00,VWS V13.01,2013-08-20 18:22:00,
2013-08-20 13:23:00,90.1,60.4,29.15,South,176,5.4,5.4,37,0.00,,,0.00,VWS V13.01,2013-08-20 18:23:00,
2013-08-20 13:24:00,90.1,60.4,29.15,South,181,5.8,5.8,37,0.00,,,0.00,VWS V13.01,2013-08-20 18:24:00,
2013-08-20 13:25:00,90.3,60.5,29.15,South,182,5.4,5.4,37,0.00,,,0.00,VWS V13.01,2013-08-20 18:25:00,
2013-08-20 13:27:00,90.0,60.2,29.15,SSW,192,7.6,7.6,37,0.00,,,0.00,VWS V13.01,2013-08-20 18:27:00,
2013-08-20 13:28:00,89.4,59.7,29.15,South,191,5.4,5.4,37,0.00,,,0.00,VWS V13.01,2013-08-20 18:28:00,
2013-08-20 13:29:00,89.4,59.7,29.15,South,187,5.8,5.8,37,0.00,,,0.00,VWS V13.01,2013-08-20 18:29:00,
2013-08-20 13:31:00,90.3,60.5,29.15,South,175,8.1,8.1,37,0.00,,,0.00,VWS V13.01,2013-08-20 18:31:00,
2013-08-20 13:32:00,88.3,58.8,29.15,South,181,11.4,11.4,37,0.00,,,0.00,VWS V13.01,2013-08-20 18:32:00,
2013-08-20 13:34:00,88.9,59.3,29.15,South,184,10.1,10.1,37,0.00,,,0.00,VWS V13.01,2013-08-20 18:34:00,
2013-08-20 13:36:00,89.1,59.4,29.15,South,188,5.8,5.8,37,0.00,,,0.00,VWS V13.01,2013-08-20 18:36:00,
2013-08-20 13:37:00,88.5,59.0,29.15,South,190,6.3,6.3,37,0.00,,,0.00,VWS V13.01,2013-08-20 18:37:00,
2013-08-20 13:39:00,90.1,60.4,29.15,SW,214,5.4,5.4,37,0.00,,,0.00,VWS V13.01,2013-08-20 18:39:00,
2013-08-20 13:41:00,89.6,59.9,29.15,South,185,6.3,6.3,37,0.00,,,0.00,VWS V13.01,2013-08-20 18:41:00,
2013-08-20 13:42:00,89.8,60.1,29.15,SSW,192,8.7,8.7,37,0.00,,,0.00,VWS V13.01,2013-08-20 18:42:00,
2013-08-20 13:44:00,89.8,60.1,29.15,South,189,7.6,7.6,37,0.00,,,0.00,VWS V13.01,2013-08-20 18:44:00,
2013-08-20 13:46:00,90.0,60.2,29.15,South,187,5.4,5.4,37,0.00,,,0.00,VWS V13.01,2013-08-20 18:46:00,
2013-08-20 13:47:00,90.1,60.4,29.15,South,185,6.3,6.3,37,0.00,,,0.00,VWS V13.01,2013-08-20 18:47:00,
2013-08-20 13:49:00,91.0,61.2,29.15,South,180,5.8,5.8,37,0.00,,,0.00,VWS V13.01,2013-08-20 18:49:00,
2013-08-20 13:51:00,90.5,60.7,29.15,South,190,3.6,3.6,37,0.00,,,0.00,VWS V13.01,2013-08-20 18:51:00,
2013-08-20 13:52:00,91.6,56.7,29.15,South,177,8.3,8.3,31,0.00,,,0.00,VWS V13.01,2013-08-20 18:52:00,
2013-08-20 13:54:00,88.2,58.6,29.15,South,173,12.3,12.3,37,0.00,,,0.00,VWS V13.01,2013-08-20 18:54:00,
2013-08-20 13:56:00,88.3,58.8,29.15,South,173,9.2,9.2,37,0.00,,,0.00,VWS V13.01,2013-08-20 18:56:00,
2013-08-20 13:57:00,88.2,58.6,29.15,South,186,5.8,5.8,37,0.00,,,0.00,VWS V13.01,2013-08-20 18:57:00,
2013-08-20 13:59:00,89.2,59.6,29.15,South,183,8.3,8.3,37,0.00,,,0.00,VWS V13.01,2013-08-20 18:59:00,
2013-08-20 14:01:00,89.2,59.6,29.15,South,184,5.8,5.8,37,0.00,,,0.00,VWS V13.01,2013-08-20 19:01:00,
2013-08-20 14:02:00,89.4,59.7,29.15,South,176,8.3,8.3,37,0.00,,,0.00,VWS V13.01,2013-08-20 19:02:00,
2013-08-20 14:04:00,88.5,59.0,29.15,South,178,10.1,10.1,37,0.00,,,0.00,VWS V13.01,2013-08-20 19:04:00,
2013-08-20 14:06:00,88.3,58.8,29.15,SSW,197,8.1,8.1,37,0.00,,,0.00,VWS V13.01,2013-08-20 19:06:00,
2013-08-20 14:07:00,88.9,59.3,29.15,South,179,4.9,4.9,37,0.00,,,0.00,VWS V13.01,2013-08-20 19:07:00,
2013-08-20 14:08:00,88.9,59.3,29.15,South,189,6.3,6.3,37,0.00,,,0.00,VWS V13.01,2013-08-20 19:08:00,
2013-08-20 14:09:00,87.4,62.2,29.15,South,187,6.3,6.3,43,0.00,,,0.00,VWS V13.01,2013-08-20 19:09:00,
2013-08-20 14:11:00,87.1,61.9,29.12,South,182,6.7,6.7,43,0.00,,,0.00,VWS V13.01,2013-08-20 19:11:00,
2013-08-20 14:12:00,86.9,61.7,29.12,South,183,5.4,5.4,43,0.00,,,0.00,VWS V13.01,2013-08-20 19:12:00,
2013-08-20 14:13:00,86.7,61.6,29.12,South,190,5.8,5.8,43,0.00,,,0.00,VWS V13.01,2013-08-20 19:13:00,
2013-08-20 14:14:00,86.9,61.7,29.12,WSW,244,5.4,5.4,43,0.00,,,0.00,VWS V13.01,2013-08-20 19:14:00,
2013-08-20 14:16:00,87.8,58.3,29.12,SSE,167,8.7,8.7,37,0.00,,,0.00,VWS V13.01,2013-08-20 19:16:00,
2013-08-20 14:17:00,87.6,62.4,29.12,South,190,8.1,8.1,43,0.00,,,0.00,VWS V13.01,2013-08-20 19:17:00,
2013-08-20 14:18:00,87.6,62.4,29.12,South,183,8.1,8.1,43,0.00,,,0.00,VWS V13.01,2013-08-20 19:18:00,
2013-08-20 14:19:00,87.3,62.1,29.12,South,177,5.8,5.8,43,0.00,,,0.00,VWS V13.01,2013-08-20 19:19:00,
2013-08-20 14:20:00,87.1,61.9,29.12,SSW,193,5.8,5.8,43,0.00,,,0.00,VWS V13.01,2013-08-20 19:20:00,
2013-08-20 14:21:00,87.1,61.9,29.12,South,190,8.3,8.3,43,0.00,,,0.00,VWS V13.01,2013-08-20 19:21:00,
2013-08-20 14:22:00,86.5,61.4,29.12,South,181,7.6,7.6,43,0.00,,,0.00,VWS V13.01,2013-08-20 19:22:00,
2013-08-20 14:23:00,86.4,61.2,29.12,South,175,6.3,6.3,43,0.00,,,0.00,VWS V13.01,2013-08-20 19:23:00,
2013-08-20 14:24:00,86.7,61.6,29.12,South,180,8.7,8.7,43,0.00,,,0.00,VWS V13.01,2013-08-20 19:24:00,
2013-08-20 14:25:00,86.4,61.2,29.12,South,185,10.5,10.5,43,0.00,,,0.00,VWS V13.01,2013-08-20 19:25:00,
2013-08-20 14:27:00,86.4,61.2,29.12,South,171,7.6,7.6,43,0.00,,,0.00,VWS V13.01,2013-08-20 19:27:00,
2013-08-20 14:28:00,86.7,61.6,29.12,South,176,5.8,5.8,43,0.00,,,0.00,VWS V13.01,2013-08-20 19:28:00,
2013-08-20 14:29:00,87.1,61.9,29.12,South,178,5.8,5.8,43,0.00,,,0.00,VWS V13.01,2013-08-20 19:29:00,
2013-08-20 14:30:00,87.1,61.9,29.12,South,183,5.8,5.8,43,0.00,,,0.00,VWS V13.01,2013-08-20 19:30:00,
2013-08-20 14:32:00,87.3,62.1,29.12,South,191,7.6,7.6,43,0.00,,,0.00,VWS V13.01,2013-08-20 19:32:00,
2013-08-20 14:33:00,87.1,61.9,29.12,South,186,5.4,5.4,43,0.00,,,0.00,VWS V13.01,2013-08-20 19:33:00,
2013-08-20 14:34:00,86.9,61.7,29.12,SSW,193,4.9,4.9,43,0.00,,,0.00,VWS V13.01,2013-08-20 19:34:00,
2013-08-20 14:35:00,86.9,61.7,29.12,SSW,202,4.0,4.0,43,0.00,,,0.00,VWS V13.01,2013-08-20 19:35:00,
2013-08-20 14:37:00,86.4,61.2,29.12,South,172,11.0,11.0,43,0.00,,,0.00,VWS V13.01,2013-08-20 19:37:00,
2013-08-20 14:38:00,86.4,61.2,29.12,South,188,8.3,8.3,43,0.00,,,0.00,VWS V13.01,2013-08-20 19:38:00,
2013-08-20 14:39:00,86.4,61.2,29.12,SSW,193,5.8,5.8,43,0.00,,,0.00,VWS V13.01,2013-08-20 19:39:00,
2013-08-20 14:40:00,86.7,61.6,29.12,South,169,3.1,3.1,43,0.00,,,0.00,VWS V13.01,2013-08-20 19:40:00,
2013-08-20 14:42:00,86.2,61.1,29.12,South,191,8.3,8.3,43,0.00,,,0.00,VWS V13.01,2013-08-20 19:42:00,
2013-08-20 14:43:00,86.5,61.4,29.12,SSW,196,5.8,5.8,43,0.00,,,0.00,VWS V13.01,2013-08-20 19:43:00,
2013-08-20 14:44:00,87.1,61.9,29.12,South,180,5.8,5.8,43,0.00,,,0.00,VWS V13.01,2013-08-20 19:44:00,
2013-08-20 14:45:00,87.3,62.1,29.12,SSE,158,8.7,8.7,43,0.00,,,0.00,VWS V13.01,2013-08-20 19:45:00,
2013-08-20 14:47:00,86.7,61.6,29.12,South,180,10.1,10.1,43,0.00,,,0.00,VWS V13.01,2013-08-20 19:47:00,
2013-08-20 14:48:00,86.7,61.6,29.12,SSE,155,5.4,5.4,43,0.00,,,0.00,VWS V13.01,2013-08-20 19:48:00,
2013-08-20 14:49:00,86.9,61.7,29.12,SSE,159,4.9,4.9,43,0.00,,,0.00,VWS V13.01,2013-08-20 19:49:00,
2013-08-20 14:50:00,86.7,61.6,29.12,South,189,10.1,10.1,43,0.00,,,0.00,VWS V13.01,2013-08-20 19:50:00,
2013-08-20 14:52:00,86.0,60.9,29.12,South,179,7.6,7.6,43,0.00,,,0.00,VWS V13.01,2013-08-20 19:52:00,
2013-08-20 14:53:00,85.8,60.8,29.12,South,181,8.7,8.7,43,0.00,,,0.00,VWS V13.01,2013-08-20 19:53:00,
2013-08-20 14:54:00,86.0,60.9,29.12,SE,146,5.4,5.4,43,0.00,,,0.00,VWS V13.01,2013-08-20 19:54:00,
2013-08-20 14:55:00,86.7,61.6,29.12,South,177,8.1,8.1,43,0.00,,,0.00,VWS V13.01,2013-08-20 19:55:00,
2013-08-20 14:57:00,86.5,61.4,29.12,South,181,4.0,4.0,43,0.00,,,0.00,VWS V13.01,2013-08-20 19:57:00,
2013-08-20 14:58:00,86.7,61.6,29.12,South,174,6.3,6.3,43,0.00,,,0.00,VWS V13.01,2013-08-20 19:58:00,
2013-08-20 14:59:00,86.9,61.7,29.12,SSE,150,3.1,3.1,43,0.00,,,0.00,VWS V13.01,2013-08-20 19:59:00,
2013-08-20 15:00:00,86.5,61.4,29.12,South,181,10.5,10.5,43,0.00,,,0.00,VWS V13.01,2013-08-20 20:00:00,
2013-08-20 15:01:00,86.5,61.4,29.12,South,176,8.1,8.1,43,0.00,,,0.00,VWS V13.01,2013-08-20 20:01:00,
2013-08-20 15:02:00,86.7,61.6,29.12,South,187,6.3,6.3,43,0.00,,,0.00,VWS V13.01,2013-08-20 20:02:00,
2013-08-20 15:03:00,87.1,61.9,29.12,South,179,5.8,5.8,43,0.00,,,0.00,VWS V13.01,2013-08-20 20:03:00,
2013-08-20 15:04:00,86.4,61.2,29.12,South,176,10.5,10.5,43,0.00,,,0.00,VWS V13.01,2013-08-20 20:04:00,
2013-08-20 15:05:00,86.2,61.1,29.12,South,178,8.1,8.1,43,0.00,,,0.00,VWS V13.01,2013-08-20 20:05:00,
2013-08-20 15:06:00,85.8,60.8,29.12,South,171,2.7,2.7,43,0.00,,,0.00,VWS V13.01,2013-08-20 20:06:00,
2013-08-20 15:07:00,86.2,61.1,29.12,South,174,8.3,8.3,43,0.00,,,0.00,VWS V13.01,2013-08-20 20:07:00,
2013-08-20 15:08:00,86.0,60.9,29.12,South,188,8.1,8.1,43,0.00,,,0.00,VWS V13.01,2013-08-20 20:08:00,
2013-08-20 15:09:00,86.0,60.9,29.12,South,181,8.1,8.1,43,0.00,,,0.00,VWS V13.01,2013-08-20 20:09:00,
2013-08-20 15:10:00,86.4,61.2,29.12,South,177,10.1,10.1,43,0.00,,,0.00,VWS V13.01,2013-08-20 20:10:00,
2013-08-20 15:11:00,86.4,61.2,29.12,South,189,6.3,6.3,43,0.00,,,0.00,VWS V13.01,2013-08-20 20:11:00,
2013-08-20 15:12:00,86.9,61.7,29.12,SSW,196,8.1,8.1,43,0.00,,,0.00,VWS V13.01,2013-08-20 20:12:00,
2013-08-20 15:13:00,86.5,61.4,29.12,South,183,11.0,11.0,43,0.00,,,0.00,VWS V13.01,2013-08-20 20:13:00,
2013-08-20 15:14:00,86.5,61.4,29.12,South,191,10.1,10.1,43,0.00,,,0.00,VWS V13.01,2013-08-20 20:14:00,
2013-08-20 15:15:00,86.5,61.4,29.12,South,176,7.6,7.6,43,0.00,,,0.00,VWS V13.01,2013-08-20 20:15:00,
2013-08-20 15:16:00,86.2,61.1,29.12,South,176,8.7,8.7,43,0.00,,,0.00,VWS V13.01,2013-08-20 20:16:00,
2013-08-20 15:17:00,85.8,60.8,29.12,South,177,4.9,4.9,43,0.00,,,0.00,VWS V13.01,2013-08-20 20:17:00,
2013-08-20 15:18:00,86.0,60.9,29.12,SSW,193,5.8,5.8,43,0.00,,,0.00,VWS V13.01,2013-08-20 20:18:00,
2013-08-20 15:19:00,86.0,60.9,29.12,South,185,5.8,5.8,43,0.00,,,0.00,VWS V13.01,2013-08-20 20:19:00,
2013-08-20 15:20:00,86.2,61.1,29.12,South,183,11.0,11.0,43,0.00,,,0.00,VWS V13.01,2013-08-20 20:20:00,
2013-08-20 15:21:00,85.6,60.6,29.12,South,189,10.5,10.5,43,0.00,,,0.00,VWS V13.01,2013-08-20 20:21:00,
2013-08-20 15:22:00,85.6,60.6,29.12,South,175,10.5,10.5,43,0.00,,,0.00,VWS V13.01,2013-08-20 20:22:00,
2013-08-20 15:23:00,85.8,60.8,29.12,South,181,8.1,8.1,43,0.00,,,0.00,VWS V13.01,2013-08-20 20:23:00,
2013-08-20 15:24:00,86.2,61.1,29.12,South,181,5.8,5.8,43,0.00,,,0.00,VWS V13.01,2013-08-20 20:24:00,
2013-08-20 15:25:00,85.6,60.6,29.12,SSW,194,10.1,10.1,43,0.00,,,0.00,VWS V13.01,2013-08-20 20:25:00,
2013-08-20 15:26:00,85.8,60.8,29.12,South,188,8.3,8.3,43,0.00,,,0.00,VWS V13.01,2013-08-20 20:26:00,
2013-08-20 15:27:00,86.0,60.9,29.12,South,172,7.6,7.6,43,0.00,,,0.00,VWS V13.01,2013-08-20 20:27:00,
2013-08-20 15:28:00,86.4,61.2,29.12,South,178,3.6,3.6,43,0.00,,,0.00,VWS V13.01,2013-08-20 20:28:00,
2013-08-20 15:29:00,86.5,61.4,29.12,SSW,204,5.4,5.4,43,0.00,,,0.00,VWS V13.01,2013-08-20 20:29:00,
2013-08-20 15:30:00,86.7,61.6,29.12,South,186,13.6,13.6,43,0.00,,,0.00,VWS V13.01,2013-08-20 20:30:00,
2013-08-20 15:31:00,86.5,61.4,29.12,South,186,9.6,9.6,43,0.00,,,0.00,VWS V13.01,2013-08-20 20:31:00,
2013-08-20 15:32:00,86.7,61.6,29.12,South,191,2.7,2.7,43,0.00,,,0.00,VWS V13.01,2013-08-20 20:32:00,
2013-08-20 15:33:00,87.1,61.9,29.12,South,178,5.8,5.8,43,0.00,,,0.00,VWS V13.01,2013-08-20 20:33:00,
2013-08-20 15:34:00,87.4,62.2,29.12,South,178,7.6,7.6,43,0.00,,,0.00,VWS V13.01,2013-08-20 20:34:00,
2013-08-20 15:35:00,87.3,62.1,29.12,South,177,8.1,8.1,43,0.00,,,0.00,VWS V13.01,2013-08-20 20:35:00,
2013-08-20 15:37:00,86.5,61.4,29.12,South,180,8.1,8.1,43,0.00,,,0.00,VWS V13.01,2013-08-20 20:37:00,
2013-08-20 15:38:00,86.4,61.2,29.12,South,177,5.8,5.8,43,0.00,,,0.00,VWS V13.01,2013-08-20 20:38:00,
2013-08-20 15:40:00,86.5,61.4,29.12,South,179,5.4,5.4,43,0.00,,,0.00,VWS V13.01,2013-08-20 20:40:00,
2013-08-20 15:42:00,86.9,61.7,29.12,South,179,10.5,10.5,43,0.00,,,0.00,VWS V13.01,2013-08-20 20:42:00,
2013-08-20 15:44:00,86.4,61.2,29.12,South,190,8.7,8.7,43,0.00,,,0.00,VWS V13.01,2013-08-20 20:44:00,
2013-08-20 15:45:00,86.5,61.4,29.12,South,187,11.0,11.0,43,0.00,,,0.00,VWS V13.01,2013-08-20 20:45:00,
2013-08-20 15:47:00,86.4,61.2,29.12,South,186,8.1,8.1,43,0.00,,,0.00,VWS V13.01,2013-08-20 20:47:00,
2013-08-20 15:49:00,86.9,61.7,29.12,South,175,8.3,8.3,43,0.00,,,0.00,VWS V13.01,2013-08-20 20:49:00,
2013-08-20 15:50:00,86.7,61.6,29.12,South,179,8.1,8.1,43,0.00,,,0.00,VWS V13.01,2013-08-20 20:50:00,
2013-08-20 15:52:00,86.4,61.2,29.12,South,187,8.1,8.1,43,0.00,,,0.00,VWS V13.01,2013-08-20 20:52:00,
2013-08-20 15:54:00,86.4,61.2,29.12,South,178,5.8,5.8,43,0.00,,,0.00,VWS V13.01,2013-08-20 20:54:00,
2013-08-20 15:55:00,86.4,61.2,29.12,SE,146,3.6,3.6,43,0.00,,,0.00,VWS V13.01,2013-08-20 20:55:00,
2013-08-20 15:56:00,86.9,61.7,29.12,South,188,10.5,10.5,43,0.00,,,0.00,VWS V13.01,2013-08-20 20:56:00,
2013-08-20 15:57:00,86.5,61.4,29.12,SSW,196,11.0,11.0,43,0.00,,,0.00,VWS V13.01,2013-08-20 20:57:00,
2013-08-20 15:59:00,86.0,60.9,29.12,South,188,10.5,10.5,43,0.00,,,0.00,VWS V13.01,2013-08-20 20:59:00,
2013-08-20 16:00:00,86.0,60.9,29.12,South,182,8.3,8.3,43,0.00,,,0.00,VWS V13.01,2013-08-20 21:00:00,
2013-08-20 16:01:00,86.0,60.9,29.12,South,182,7.6,7.6,43,0.00,,,0.00,VWS V13.01,2013-08-20 21:01:00,
2013-08-20 16:02:00,85.6,60.6,29.12,South,176,5.8,5.8,43,0.00,,,0.00,VWS V13.01,2013-08-20 21:02:00,
2013-08-20 16:04:00,85.5,60.4,29.12,South,187,6.3,6.3,43,0.00,,,0.00,VWS V13.01,2013-08-20 21:04:00,
2013-08-20 16:05:00,85.6,60.6,29.12,South,183,7.6,7.6,43,0.00,,,0.00,VWS V13.01,2013-08-20 21:05:00,
2013-08-20 16:06:00,86.2,61.1,29.12,South,171,8.1,8.1,43,0.00,,,0.00,VWS V13.01,2013-08-20 21:06:00,
2013-08-20 16:07:00,86.2,61.1,29.12,South,183,6.3,6.3,43,0.00,,,0.00,VWS V13.01,2013-08-20 21:07:00,
2013-08-20 16:08:00,86.4,61.2,29.12,South,171,5.8,5.8,43,0.00,,,0.00,VWS V13.01,2013-08-20 21:08:00,
2013-08-20 16:09:00,86.7,61.6,29.12,South,190,4.0,4.0,43,0.00,,,0.00,VWS V13.01,2013-08-20 21:09:00,
2013-08-20 16:10:00,86.9,61.7,29.12,South,177,8.1,8.1,43,0.00,,,0.00,VWS V13.01,2013-08-20 21:10:00,
2013-08-20 16:11:00,86.9,61.7,29.12,South,174,8.1,8.1,43,0.00,,,0.00,VWS V13.01,2013-08-20 21:11:00,
2013-08-20 16:12:00,86.9,61.7,29.12,SSW,192,8.3,8.3,43,0.00,,,0.00,VWS V13.01,2013-08-20 21:12:00,
2013-08-20 16:13:00,86.4,61.2,29.12,South,175,6.3,6.3,43,0.00,,,0.00,VWS V13.01,2013-08-20 21:13:00,
2013-08-20 16:14:00,86.4,61.2,29.12,South,179,5.8,5.8,43,0.00,,,0.00,VWS V13.01,2013-08-20 21:14:00,
2013-08-20 16:15:00,86.4,61.2,29.12,South,174,8.3,8.3,43,0.00,,,0.00,VWS V13.01,2013-08-20 21:15:00,
2013-08-20 16:16:00,86.4,61.2,29.12,South,173,8.7,8.7,43,0.00,,,0.00,VWS V13.01,2013-08-20 21:16:00,
2013-08-20 16:17:00,86.5,61.4,29.12,South,183,9.2,9.2,43,0.00,,,0.00,VWS V13.01,2013-08-20 21:17:00,
2013-08-20 16:18:00,86.4,61.2,29.12,SSW,192,7.6,7.6,43,0.00,,,0.00,VWS V13.01,2013-08-20 21:18:00,
2013-08-20 16:19:00,86.7,61.6,29.12,SSW,192,8.7,8.7,43,0.00,,,0.00,VWS V13.01,2013-08-20 21:19:00,
2013-08-20 16:20:00,86.7,61.6,29.12,South,187,7.6,7.6,43,0.00,,,0.00,VWS V13.01,2013-08-20 21:20:00,
2013-08-20 16:21:00,86.5,61.4,29.12,SSW,201,6.3,6.3,43,0.00,,,0.00,VWS V13.01,2013-08-20 21:21:00,
2013-08-20 16:22:00,86.5,61.4,29.12,South,185,7.6,7.6,43,0.00,,,0.00,VWS V13.01,2013-08-20 21:22:00,
2013-08-20 16:23:00,86.5,61.4,29.12,South,185,6.3,6.3,43,0.00,,,0.00,VWS V13.01,2013-08-20 21:23:00,
2013-08-20 16:24:00,86.5,61.4,29.12,South,179,3.1,3.1,43,0.00,,,0.00,VWS V13.01,2013-08-20 21:24:00,
2013-08-20 16:25:00,86.7,61.6,29.12,South,190,4.9,4.9,43,0.00,,,0.00,VWS V13.01,2013-08-20 21:25:00,
2013-08-20 16:26:00,86.4,61.2,29.12,SSW,196,8.3,8.3,43,0.00,,,0.00,VWS V13.01,2013-08-20 21:26:00,
2013-08-20 16:27:00,86.4,61.2,29.12,South,187,8.7,8.7,43,0.00,,,0.00,VWS V13.01,2013-08-20 21:27:00,
2013-08-20 16:28:00,86.0,60.9,29.12,South,186,8.3,8.3,43,0.00,,,0.00,VWS V13.01,2013-08-20 21:28:00,
2013-08-20 16:29:00,85.8,60.8,29.12,SSW,192,8.7,8.7,43,0.00,,,0.00,VWS V13.01,2013-08-20 21:29:00,
2013-08-20 16:30:00,85.5,60.4,29.12,SSW,194,7.6,7.6,43,0.00,,,0.00,VWS V13.01,2013-08-20 21:30:00,
2013-08-20 16:31:00,85.6,60.6,29.12,South,178,5.4,5.4,43,0.00,,,0.00,VWS V13.01,2013-08-20 21:31:00,
2013-08-20 16:32:00,85.8,60.8,29.12,South,182,9.6,9.6,43,0.00,,,0.00,VWS V13.01,2013-08-20 21:32:00,
2013-08-20 16:33:00,85.6,60.6,29.12,South,176,8.7,8.7,43,0.00,,,0.00,VWS V13.01,2013-08-20 21:33:00,
2013-08-20 16:34:00,85.6,60.6,29.12,South,189,8.3,8.3,43,0.00,,,0.00,VWS V13.01,2013-08-20 21:34:00,
2013-08-20 16:35:00,85.8,60.8,29.12,SSW,195,8.7,8.7,43,0.00,,,0.00,VWS V13.01,2013-08-20 21:35:00,
2013-08-20 16:36:00,85.6,60.6,29.12,SSW,198,6.3,6.3,43,0.00,,,0.00,VWS V13.01,2013-08-20 21:36:00,
2013-08-20 16:37:00,86.0,60.9,29.12,South,189,5.8,5.8,43,0.00,,,0.00,VWS V13.01,2013-08-20 21:37:00,
2013-08-20 16:38:00,85.8,60.8,29.12,South,181,8.1,8.1,43,0.00,,,0.00,VWS V13.01,2013-08-20 21:38:00,
2013-08-20 16:39:00,85.3,60.3,29.12,SSE,168,6.3,6.3,43,0.00,,,0.00,VWS V13.01,2013-08-20 21:39:00,
2013-08-20 16:40:00,85.3,60.3,29.12,South,176,8.3,8.3,43,0.00,,,0.00,VWS V13.01,2013-08-20 21:40:00,
2013-08-20 16:41:00,85.3,60.3,29.12,SSW,203,6.3,6.3,43,0.00,,,0.00,VWS V13.01,2013-08-20 21:41:00,
2013-08-20 16:42:00,85.3,60.3,29.12,South,182,6.3,6.3,43,0.00,,,0.00,VWS V13.01,2013-08-20 21:42:00,
2013-08-20 16:43:00,85.5,60.4,29.12,SSE,157,5.8,5.8,43,0.00,,,0.00,VWS V13.01,2013-08-20 21:43:00,
2013-08-20 16:44:00,85.6,60.6,29.12,South,179,8.1,8.1,43,0.00,,,0.00,VWS V13.01,2013-08-20 21:44:00,
2013-08-20 16:45:00,85.8,60.8,29.12,South,191,9.2,9.2,43,0.00,,,0.00,VWS V13.01,2013-08-20 21:45:00,
2013-08-20 16:46:00,85.6,60.6,29.12,South,179,8.1,8.1,43,0.00,,,0.00,VWS V13.01,2013-08-20 21:46:00,
2013-08-20 16:47:00,85.8,60.8,29.12,South,178,7.6,7.6,43,0.00,,,0.00,VWS V13.01,2013-08-20 21:47:00,
2013-08-20 16:48:00,85.8,60.8,29.12,South,184,7.6,7.6,43,0.00,,,0.00,VWS V13.01,2013-08-20 21:48:00,
2013-08-20 16:49:00,85.6,60.6,29.12,South,187,8.7,8.7,43,0.00,,,0.00,VWS V13.01,2013-08-20 21:49:00,
2013-08-20 16:51:00,85.6,60.6,29.12,South,172,8.7,8.7,43,0.00,,,0.00,VWS V13.01,2013-08-20 21:51:00,
2013-08-20 16:52:00,85.5,60.4,29.12,South,179,8.3,8.3,43,0.00,,,0.00,VWS V13.01,2013-08-20 21:52:00,
2013-08-20 16:53:00,85.1,60.1,29.12,SSE,161,6.3,6.3,43,0.00,,,0.00,VWS V13.01,2013-08-20 21:53:00,
2013-08-20 16:54:00,84.9,60.0,29.12,South,184,5.4,5.4,43,0.00,,,0.00,VWS V13.01,2013-08-20 21:54:00,
2013-08-20 16:56:00,85.1,60.1,29.12,South,179,7.6,7.6,43,0.00,,,0.00,VWS V13.01,2013-08-20 21:56:00,
2013-08-20 16:57:00,85.1,60.1,29.12,South,179,5.8,5.8,43,0.00,,,0.00,VWS V13.01,2013-08-20 21:57:00,
2013-08-20 16:58:00,85.6,60.6,29.12,South,185,5.4,5.4,43,0.00,,,0.00,VWS V13.01,2013-08-20 21:58:00,
2013-08-20 16:59:00,85.8,60.8,29.12,South,178,8.1,8.1,43,0.00,,,0.00,VWS V13.01,2013-08-20 21:59:00,
2013-08-20 17:01:00,85.8,60.8,29.12,SSW,207,4.0,4.0,43,0.00,,,0.00,VWS V13.01,2013-08-20 22:01:00,
2013-08-20 17:02:00,85.8,60.8,29.12,SSE,162,4.0,4.0,43,0.00,,,0.00,VWS V13.01,2013-08-20 22:02:00,
2013-08-20 17:03:00,86.0,60.9,29.12,South,179,6.3,6.3,43,0.00,,,0.00,VWS V13.01,2013-08-20 22:03:00,
2013-08-20 17:05:00,85.6,60.6,29.12,South,177,8.1,8.1,43,0.00,,,0.00,VWS V13.01,2013-08-20 22:05:00,
2013-08-20 17:06:00,85.6,60.6,29.12,SSW,193,7.6,7.6,43,0.00,,,0.00,VWS V13.01,2013-08-20 22:06:00,
2013-08-20 17:07:00,85.5,60.4,29.12,South,173,10.5,10.5,43,0.00,,,0.00,VWS V13.01,2013-08-20 22:07:00,
2013-08-20 17:08:00,85.6,60.6,29.12,SSW,201,7.6,7.6,43,0.00,,,0.00,VWS V13.01,2013-08-20 22:08:00,
2013-08-20 17:10:00,85.8,60.8,29.12,South,191,7.6,7.6,43,0.00,,,0.00,VWS V13.01,2013-08-20 22:10:00,
2013-08-20 17:11:00,85.8,60.8,29.12,South,178,5.8,5.8,43,0.00,,,0.00,VWS V13.01,2013-08-20 22:11:00,
2013-08-20 17:12:00,85.8,60.8,29.12,SE,145,4.9,4.9,43,0.00,,,0.00,VWS V13.01,2013-08-20 22:12:00,
2013-08-20 17:13:00,85.8,60.8,29.12,South,180,6.3,6.3,43,0.00,,,0.00,VWS V13.01,2013-08-20 22:13:00,
2013-08-20 17:15:00,86.2,61.1,29.12,South,185,5.8,5.8,43,0.00,,,0.00,VWS V13.01,2013-08-20 22:15:00,
2013-08-20 17:16:00,86.0,60.9,29.12,SSW,206,7.6,7.6,43,0.00,,,0.00,VWS V13.01,2013-08-20 22:16:00,
2013-08-20 17:17:00,85.6,60.6,29.12,South,185,10.5,10.5,43,0.00,,,0.00,VWS V13.01,2013-08-20 22:17:00,
2013-08-20 17:18:00,85.5,60.4,29.12,South,178,8.3,8.3,43,0.00,,,0.00,VWS V13.01,2013-08-20 22:18:00,
2013-08-20 17:21:00,85.3,60.3,29.12,South,187,8.7,8.7,43,0.00,,,0.00,VWS V13.01,2013-08-20 22:21:00,
2013-08-20 17:22:00,85.3,60.3,29.12,SSW,195,7.6,7.6,43,0.00,,,0.00,VWS V13.01,2013-08-20 22:22:00,
2013-08-20 17:24:00,85.3,60.3,29.12,South,180,6.7,6.7,43,0.00,,,0.00,VWS V13.01,2013-08-20 22:24:00,
2013-08-20 17:26:00,85.1,60.1,29.12,South,176,7.6,7.6,43,0.00,,,0.00,VWS V13.01,2013-08-20 22:26:00,
2013-08-20 17:27:00,85.1,60.1,29.12,South,174,7.6,7.6,43,0.00,,,0.00,VWS V13.01,2013-08-20 22:27:00,
2013-08-20 17:29:00,85.1,60.1,29.12,SW,218,8.7,8.7,43,0.00,,,0.00,VWS V13.01,2013-08-20 22:29:00,
2013-08-20 17:31:00,85.1,60.1,29.12,South,179,8.3,8.3,43,0.00,,,0.00,VWS V13.01,2013-08-20 22:31:00,
2013-08-20 17:32:00,85.1,60.1,29.12,South,181,7.6,7.6,43,0.00,,,0.00,VWS V13.01,2013-08-20 22:32:00,
2013-08-20 17:34:00,84.7,59.8,29.12,South,177,5.8,5.8,43,0.00,,,0.00,VWS V13.01,2013-08-20 22:34:00,
2013-08-20 17:37:00,84.9,60.0,29.12,SSE,168,8.1,8.1,43,0.00,,,0.00,VWS V13.01,2013-08-20 22:37:00,
2013-08-20 17:39:00,85.3,60.3,29.12,South,182,8.1,8.1,43,0.00,,,0.00,VWS V13.01,2013-08-20 22:39:00,
2013-08-20 17:42:00,84.9,60.0,29.12,South,175,7.2,7.2,43,0.00,,,0.00,VWS V13.01,2013-08-20 22:42:00,
2013-08-20 17:44:00,84.9,60.0,29.12,South,188,8.3,8.3,43,0.00,,,0.00,VWS V13.01,2013-08-20 22:44:00,
2013-08-20 17:47:00,84.9,60.0,29.12,South,177,6.3,6.3,43,0.00,,,0.00,VWS V13.01,2013-08-20 22:47:00,
2013-08-20 17:49:00,85.1,60.1,29.12,SSE,153,7.6,7.6,43,0.00,,,0.00,VWS V13.01,2013-08-20 22:49:00,
2013-08-20 17:52:00,84.7,59.8,29.12,South,177,6.7,6.7,43,0.00,,,0.00,VWS V13.01,2013-08-20 22:52:00,
2013-08-20 17:53:00,84.9,60.0,29.12,SSE,162,5.4,5.4,43,0.00,,,0.00,VWS V13.01,2013-08-20 22:53:00,
2013-08-20 17:54:00,84.9,60.0,29.12,South,184,7.6,7.6,43,0.00,,,0.00,VWS V13.01,2013-08-20 22:54:00,
2013-08-20 17:57:00,84.9,60.0,29.12,South,187,5.4,5.4,43,0.00,,,0.00,VWS V13.01,2013-08-20 22:57:00,
2013-08-20 17:58:00,84.9,60.0,29.12,South,182,5.4,5.4,43,0.00,,,0.00,VWS V13.01,2013-08-20 22:58:00,
2013-08-20 17:59:00,84.9,60.0,29.12,South,185,7.2,7.2,43,0.00,,,0.00,VWS V13.01,2013-08-20 22:59:00,
2013-08-20 18:02:00,85.1,60.1,29.12,South,178,6.3,6.3,43,0.00,,,0.00,VWS V13.01,2013-08-20 23:02:00,
2013-08-20 18:03:00,85.1,60.1,29.12,South,191,7.6,7.6,43,0.00,,,0.00,VWS V13.01,2013-08-20 23:03:00,
2013-08-20 18:04:00,85.1,60.1,29.12,SSE,167,7.2,7.2,43,0.00,,,0.00,VWS V13.01,2013-08-20 23:04:00,
2013-08-20 18:07:00,84.9,60.0,29.12,South,176,5.8,5.8,43,0.00,,,0.00,VWS V13.01,2013-08-20 23:07:00,
2013-08-20 18:08:00,84.9,60.0,29.12,South,173,5.8,5.8,43,0.00,,,0.00,VWS V13.01,2013-08-20 23:08:00,
2013-08-20 18:09:00,84.9,60.0,29.12,South,178,6.3,6.3,43,0.00,,,0.00,VWS V13.01,2013-08-20 23:09:00,
2013-08-20 18:12:00,84.6,59.6,29.12,South,177,6.3,6.3,43,0.00,,,0.00,VWS V13.01,2013-08-20 23:12:00,
2013-08-20 18:13:00,84.6,59.6,29.12,South,177,6.3,6.3,43,0.00,,,0.00,VWS V13.01,2013-08-20 23:13:00,
2013-08-20 18:14:00,84.4,59.5,29.12,SSW,192,7.2,7.2,43,0.00,,,0.00,VWS V13.01,2013-08-20 23:14:00,
2013-08-20 18:17:00,84.2,59.3,29.12,South,178,6.3,6.3,43,0.00,,,0.00,VWS V13.01,2013-08-20 23:17:00,
2013-08-20 18:18:00,84.2,59.3,29.12,South,178,6.3,6.3,43,0.00,,,0.00,VWS V13.01,2013-08-20 23:18:00,
2013-08-20 18:19:00,84.2,59.3,29.12,South,174,6.7,6.7,43,0.00,,,0.00,VWS V13.01,2013-08-20 23:19:00,
2013-08-20 18:23:00,84.2,59.3,29.12,South,191,6.7,6.7,43,0.00,,,0.00,VWS V13.01,2013-08-20 23:23:00,
2013-08-20 18:24:00,84.2,59.3,29.12,South,190,5.8,5.8,43,0.00,,,0.00,VWS V13.01,2013-08-20 23:24:00,
2013-08-20 18:28:00,84.0,59.1,29.12,South,176,7.6,7.6,43,0.00,,,0.00,VWS V13.01,2013-08-20 23:28:00,
2013-08-20 18:29:00,84.0,59.1,29.12,South,186,5.8,5.8,43,0.00,,,0.00,VWS V13.01,2013-08-20 23:29:00,
2013-08-20 18:33:00,84.0,59.1,29.12,South,188,7.6,7.6,43,0.00,,,0.00,VWS V13.01,2013-08-20 23:33:00,
2013-08-20 18:34:00,84.0,59.1,29.12,South,179,5.8,5.8,43,0.00,,,0.00,VWS V13.01,2013-08-20 23:34:00,
2013-08-20 18:38:00,83.8,59.0,29.12,South,181,5.8,5.8,43,0.00,,,0.00,VWS V13.01,2013-08-20 23:38:00,
2013-08-20 18:39:00,83.8,59.0,29.12,South,188,3.6,3.6,43,0.00,,,0.00,VWS V13.01,2013-08-20 23:39:00,
2013-08-20 18:43:00,83.7,58.8,29.12,South,181,6.3,6.3,43,0.00,,,0.00,VWS V13.01,2013-08-20 23:43:00,
2013-08-20 18:44:00,83.5,58.7,29.12,South,190,6.3,6.3,43,0.00,,,0.00,VWS V13.01,2013-08-20 23:44:00,
2013-08-20 18:48:00,83.3,58.5,29.12,South,177,5.8,5.8,43,0.00,,,0.00,VWS V13.01,2013-08-20 23:48:00,
2013-08-20 18:49:00,83.1,58.3,29.12,South,186,5.8,5.8,43,0.00,,,0.00,VWS V13.01,2013-08-20 23:49:00,
2013-08-20 18:53:00,82.9,58.2,29.12,South,180,5.4,5.4,43,0.00,,,0.00,VWS V13.01,2013-08-20 23:53:00,
2013-08-20 18:55:00,82.9,58.2,29.12,South,183,4.5,4.5,43,0.00,,,0.00,VWS V13.01,2013-08-20 23:55:00,
2013-08-20 18:58:00,82.8,58.0,29.12,SSW,212,3.6,3.6,43,0.00,,,0.00,VWS V13.01,2013-08-20 23:58:00,
2013-08-20 19:00:00,82.6,57.8,29.12,South,182,5.8,5.8,43,0.00,,,0.00,VWS V13.01,2013-08-21 00:00:00,
2013-08-20 19:03:00,82.4,57.7,29.12,South,182,4.5,4.5,43,0.00,,,0.00,VWS V13.01,2013-08-21 00:03:00,
2013-08-20 19:05:00,82.4,57.7,29.12,South,184,5.8,5.8,43,0.00,,,0.00,VWS V13.01,2013-08-21 00:05:00,
2013-08-20 19:08:00,82.2,61.2,29.12,SSE,168,5.8,5.8,49,0.00,,,0.00,VWS V13.01,2013-08-21 00:08:00,
2013-08-20 19:09:00,82.2,61.2,29.12,South,182,7.6,7.6,49,0.00,,,0.00,VWS V13.01,2013-08-21 00:09:00,
2013-08-20 19:10:00,82.0,61.0,29.12,South,187,6.3,6.3,49,0.00,,,0.00,VWS V13.01,2013-08-21 00:10:00,
2013-08-20 19:13:00,81.9,60.8,29.12,South,181,5.4,5.4,49,0.00,,,0.00,VWS V13.01,2013-08-21 00:13:00,
2013-08-20 19:14:00,81.9,60.8,29.12,South,180,4.9,4.9,49,0.00,,,0.00,VWS V13.01,2013-08-21 00:14:00,
2013-08-20 19:15:00,81.9,60.8,29.12,South,180,4.9,4.9,49,0.00,,,0.00,VWS V13.01,2013-08-21 00:15:00,
2013-08-20 19:18:00,81.9,60.8,29.12,South,185,4.0,4.0,49,0.00,,,0.00,VWS V13.01,2013-08-21 00:18:00,
2013-08-20 19:19:00,81.7,60.7,29.12,South,175,3.6,3.6,49,0.00,,,0.00,VWS V13.01,2013-08-21 00:19:00,
2013-08-20 19:20:00,81.7,60.7,29.12,South,183,3.6,3.6,49,0.00,,,0.00,VWS V13.01,2013-08-21 00:20:00,
2013-08-20 19:23:00,81.5,60.5,29.12,South,182,4.0,4.0,49,0.00,,,0.00,VWS V13.01,2013-08-21 00:23:00,
2013-08-20 19:24:00,81.5,60.5,29.12,South,182,4.0,4.0,49,0.00,,,0.00,VWS V13.01,2013-08-21 00:24:00,
2013-08-20 19:25:00,81.3,60.3,29.12,South,181,4.0,4.0,49,0.00,,,0.00,VWS V13.01,2013-08-21 00:25:00,
2013-08-20 19:28:00,81.3,60.3,29.12,South,179,4.9,4.9,49,0.00,,,0.00,VWS V13.01,2013-08-21 00:28:00,
2013-08-20 19:29:00,81.1,60.2,29.12,South,181,4.5,4.5,49,0.00,,,0.00,VWS V13.01,2013-08-21 00:29:00,
2013-08-20 19:30:00,81.1,60.2,29.12,South,181,4.0,4.0,49,0.00,,,0.00,VWS V13.01,2013-08-21 00:30:00,
2013-08-20 19:33:00,81.0,60.0,29.12,South,179,4.0,4.0,49,0.00,,,0.00,VWS V13.01,2013-08-21 00:33:00,
2013-08-20 19:34:00,80.8,59.9,29.12,South,179,4.0,4.0,49,0.00,,,0.00,VWS V13.01,2013-08-21 00:34:00,
2013-08-20 19:35:00,80.8,59.9,29.12,South,179,4.0,4.0,49,0.00,,,0.00,VWS V13.01,2013-08-21 00:35:00,
2013-08-20 19:38:00,80.4,59.5,29.12,South,179,3.1,3.1,49,0.00,,,0.00,VWS V13.01,2013-08-21 00:38:00,
2013-08-20 19:39:00,80.4,59.5,29.12,South,179,3.6,3.6,49,0.00,,,0.00,VWS V13.01,2013-08-21 00:39:00,
2013-08-20 19:40:00,80.4,59.5,29.12,South,179,3.6,3.6,49,0.00,,,0.00,VWS V13.01,2013-08-21 00:40:00,
2013-08-20 19:43:00,80.1,59.2,29.12,South,179,0.0,0.0,49,0.00,,,0.00,VWS V13.01,2013-08-21 00:43:00,
2013-08-20 19:44:00,80.1,59.2,29.12,South,179,0.0,0.0,49,0.00,,,0.00,VWS V13.01,2013-08-21 00:44:00,
2013-08-20 19:45:00,80.1,59.2,29.12,South,179,0.0,0.0,49,0.00,,,0.00,VWS V13.01,2013-08-21 00:45:00,
2013-08-20 19:48:00,79.9,59.0,29.12,South,179,0.0,0.0,49,0.00,,,0.00,VWS V13.01,2013-08-21 00:48:00,
2013-08-20 19:49:00,79.9,59.0,29.12,South,179,0.0,0.0,49,0.00,,,0.00,VWS V13.01,2013-08-21 00:49:00,
2013-08-20 19:50:00,79.9,59.0,29.12,South,179,0.0,0.0,49,0.00,,,0.00,VWS V13.01,2013-08-21 00:50:00,
2013-08-20 19:53:00,79.7,58.9,29.12,South,176,4.0,4.0,49,0.00,,,0.00,VWS V13.01,2013-08-21 00:53:00,
2013-08-20 19:54:00,79.5,58.7,29.12,South,176,4.0,4.0,49,0.00,,,0.00,VWS V13.01,2013-08-21 00:54:00,
2013-08-20 19:55:00,79.5,58.7,29.12,South,176,3.6,3.6,49,0.00,,,0.00,VWS V13.01,2013-08-21 00:55:00,
2013-08-20 19:56:00,79.5,58.7,29.12,South,176,3.6,3.6,49,0.00,,,0.00,VWS V13.01,2013-08-21 00:56:00,
2013-08-20 19:58:00,79.3,58.5,29.12,South,176,3.1,3.1,49,0.00,,,0.00,VWS V13.01,2013-08-21 00:58:00,
2013-08-20 19:59:00,79.3,58.5,29.12,South,183,3.6,3.6,49,0.00,,,0.00,VWS V13.01,2013-08-21 00:59:00,
2013-08-20 20:00:00,79.3,58.5,29.12,South,183,3.1,3.1,49,0.00,,,0.00,VWS V13.01,2013-08-21 01:00:00,
2013-08-20 20:01:00,79.2,58.4,29.12,South,183,3.6,3.6,49,0.00,,,0.00,VWS V13.01,2013-08-21 01:01:00,
2013-08-20 20:03:00,79.0,58.2,29.12,South,183,3.1,3.1,49,0.00,,,0.00,VWS V13.01,2013-08-21 01:03:00,
2013-08-20 20:04:00,79.0,58.2,29.12,South,182,3.6,3.6,49,0.00,,,0.00,VWS V13.01,2013-08-21 01:04:00,
2013-08-20 20:05:00,79.0,58.2,29.12,South,182,3.6,3.6,49,0.00,,,0.00,VWS V13.01,2013-08-21 01:05:00,
2013-08-20 20:06:00,78.8,58.0,29.12,South,182,3.1,3.1,49,0.00,,,0.00,VWS V13.01,2013-08-21 01:06:00,
2013-08-20 20:08:00,78.8,58.0,29.12,South,183,3.1,3.1,49,0.00,,,0.00,VWS V13.01,2013-08-21 01:08:00,
2013-08-20 20:09:00,78.8,58.0,29.12,South,182,3.6,3.6,49,0.00,,,0.00,VWS V13.01,2013-08-21 01:09:00,
2013-08-20 20:10:00,78.8,58.0,29.12,South,182,3.1,3.1,49,0.00,,,0.00,VWS V13.01,2013-08-21 01:10:00,
2013-08-20 20:11:00,78.6,61.1,29.12,South,182,3.1,3.1,55,0.00,,,0.00,VWS V13.01,2013-08-21 01:11:00,
2013-08-20 20:13:00,78.4,61.0,29.12,South,182,3.6,3.6,55,0.00,,,0.00,VWS V13.01,2013-08-21 01:13:00,
2013-08-20 20:14:00,78.4,61.0,29.12,South,182,3.6,3.6,55,0.00,,,0.00,VWS V13.01,2013-08-21 01:14:00,
2013-08-20 20:15:00,78.4,61.0,29.12,South,181,3.6,3.6,55,0.00,,,0.00,VWS V13.01,2013-08-21 01:15:00,
2013-08-20 20:16:00,78.4,61.0,29.12,South,181,3.1,3.1,55,0.00,,,0.00,VWS V13.01,2013-08-21 01:16:00,
2013-08-20 20:18:00,78.3,60.8,29.12,South,181,4.0,4.0,55,0.00,,,0.00,VWS V13.01,2013-08-21 01:18:00,
2013-08-20 20:19:00,78.3,60.8,29.12,South,181,3.6,3.6,55,0.00,,,0.00,VWS V13.01,2013-08-21 01:19:00,
2013-08-20 20:20:00,78.1,60.6,29.12,South,181,3.1,3.1,55,0.00,,,0.00,VWS V13.01,2013-08-21 01:20:00,
2013-08-20 20:21:00,78.1,60.6,29.12,South,181,3.1,3.1,55,0.00,,,0.00,VWS V13.01,2013-08-21 01:21:00,
2013-08-20 20:23:00,77.9,60.5,29.12,South,181,4.0,4.0,55,0.00,,,0.00,VWS V13.01,2013-08-21 01:23:00,
2013-08-20 20:24:00,77.9,60.5,29.12,South,181,3.6,3.6,55,0.00,,,0.00,VWS V13.01,2013-08-21 01:24:00,
2013-08-20 20:25:00,77.9,60.5,29.12,South,181,3.1,3.1,55,0.00,,,0.00,VWS V13.01,2013-08-21 01:25:00,
2013-08-20 20:26:00,77.7,60.3,29.12,South,181,4.0,4.0,55,0.00,,,0.00,VWS V13.01,2013-08-21 01:26:00,
2013-08-20 20:28:00,77.7,60.3,29.12,South,181,2.7,2.7,55,0.00,,,0.00,VWS V13.01,2013-08-21 01:28:00,
2013-08-20 20:29:00,77.7,60.3,29.12,South,181,2.7,2.7,55,0.00,,,0.00,VWS V13.01,2013-08-21 01:29:00,
2013-08-20 20:30:00,77.5,60.1,29.12,South,181,2.7,2.7,55,0.00,,,0.00,VWS V13.01,2013-08-21 01:30:00,
2013-08-20 20:31:00,77.5,60.1,29.12,South,181,2.7,2.7,55,0.00,,,0.00,VWS V13.01,2013-08-21 01:31:00,
2013-08-20 20:33:00,77.4,60.0,29.12,South,184,2.2,2.2,55,0.00,,,0.00,VWS V13.01,2013-08-21 01:33:00,
2013-08-20 20:34:00,77.4,60.0,29.12,South,184,3.1,3.1,55,0.00,,,0.00,VWS V13.01,2013-08-21 01:34:00,
2013-08-20 20:35:00,77.4,60.0,29.12,South,184,2.7,2.7,55,0.00,,,0.00,VWS V13.01,2013-08-21 01:35:00,
2013-08-20 20:36:00,77.4,60.0,29.12,South,184,2.7,2.7,55,0.00,,,0.00,VWS V13.01,2013-08-21 01:36:00,
2013-08-20 20:38:00,77.2,59.8,29.12,South,184,2.7,2.7,55,0.00,,,0.00,VWS V13.01,2013-08-21 01:38:00,
2013-08-20 20:39:00,77.2,59.8,29.12,South,184,2.7,2.7,55,0.00,,,0.00,VWS V13.01,2013-08-21 01:39:00,
2013-08-20 20:40:00,77.0,59.6,29.12,South,184,3.1,3.1,55,0.00,,,0.00,VWS V13.01,2013-08-21 01:40:00,
2013-08-20 20:42:00,77.0,59.6,29.12,South,184,3.1,3.1,55,0.00,,,0.00,VWS V13.01,2013-08-21 01:42:00,
2013-08-20 20:44:00,76.8,59.5,29.12,South,184,3.1,3.1,55,0.00,,,0.00,VWS V13.01,2013-08-21 01:44:00,
2013-08-20 20:45:00,76.8,59.5,29.12,South,184,2.7,2.7,55,0.00,,,0.00,VWS V13.01,2013-08-21 01:45:00,
2013-08-20 20:47:00,76.8,59.5,29.12,South,184,2.2,2.2,55,0.00,,,0.00,VWS V13.01,2013-08-21 01:47:00,
2013-08-20 20:49:00,76.8,59.5,29.12,South,184,3.1,3.1,55,0.00,,,0.00,VWS V13.01,2013-08-21 01:49:00,
2013-08-20 20:50:00,76.8,59.5,29.12,South,184,3.1,3.1,55,0.00,,,0.00,VWS V13.01,2013-08-21 01:50:00,
2013-08-20 20:51:00,76.8,59.5,29.12,South,184,3.1,3.1,55,0.00,,,0.00,VWS V13.01,2013-08-21 01:51:00,
2013-08-20 20:52:00,76.8,59.5,29.12,South,184,3.1,3.1,55,0.00,,,0.00,VWS V13.01,2013-08-21 01:52:00,
2013-08-20 20:54:00,76.6,59.3,29.12,South,184,2.7,2.7,55,0.00,,,0.00,VWS V13.01,2013-08-21 01:54:00,
2013-08-20 20:55:00,76.6,59.3,29.09,South,184,3.6,3.6,55,0.00,,,0.00,VWS V13.01,2013-08-21 01:55:00,
2013-08-20 20:56:00,76.6,59.3,29.09,South,184,3.1,3.1,55,0.00,,,0.00,VWS V13.01,2013-08-21 01:56:00,
2013-08-20 20:57:00,76.5,59.1,29.09,South,184,3.6,3.6,55,0.00,,,0.00,VWS V13.01,2013-08-21 01:57:00,
2013-08-20 20:59:00,76.5,59.1,29.09,South,184,3.6,3.6,55,0.00,,,0.00,VWS V13.01,2013-08-21 01:59:00,
2013-08-20 21:00:00,76.5,59.1,29.09,South,184,3.6,3.6,55,0.00,,,0.00,VWS V13.01,2013-08-21 02:00:00,
2013-08-20 21:01:00,76.3,58.9,29.09,South,184,3.1,3.1,55,0.00,,,0.00,VWS V13.01,2013-08-21 02:01:00,
2013-08-20 21:02:00,76.1,58.8,29.09,South,184,3.1,3.1,55,0.00,,,0.00,VWS V13.01,2013-08-21 02:02:00,
2013-08-20 21:04:00,75.9,58.6,29.09,South,184,3.1,3.1,55,0.00,,,0.00,VWS V13.01,2013-08-21 02:04:00,
2013-08-20 21:05:00,75.7,58.4,29.09,South,184,4.0,4.0,55,0.00,,,0.00,VWS V13.01,2013-08-21 02:05:00,
2013-08-20 21:06:00,75.9,58.6,29.09,South,184,4.0,4.0,55,0.00,,,0.00,VWS V13.01,2013-08-21 02:06:00,
2013-08-20 21:07:00,75.7,58.4,29.09,South,184,3.1,3.1,55,0.00,,,0.00,VWS V13.01,2013-08-21 02:07:00,
2013-08-20 21:09:00,75.9,58.6,29.12,South,184,3.1,3.1,55,0.00,,,0.00,VWS V13.01,2013-08-21 02:09:00,
2013-08-20 21:10:00,75.9,58.6,29.12,South,184,3.6,3.6,55,0.00,,,0.00,VWS V13.01,2013-08-21 02:10:00,
2013-08-20 21:11:00,75.9,58.6,29.12,South,184,3.1,3.1,55,0.00,,,0.00,VWS V13.01,2013-08-21 02:11:00,
2013-08-20 21:12:00,76.1,58.8,29.12,South,184,3.6,3.6,55,0.00,,,0.00,VWS V13.01,2013-08-21 02:12:00,
2013-08-20 21:14:00,75.9,58.6,29.12,South,184,3.6,3.6,55,0.00,,,0.00,VWS V13.01,2013-08-21 02:14:00,
2013-08-20 21:15:00,75.9,58.6,29.12,South,184,4.0,4.0,55,0.00,,,0.00,VWS V13.01,2013-08-21 02:15:00,
2013-08-20 21:16:00,75.9,58.6,29.12,South,184,4.0,4.0,55,0.00,,,0.00,VWS V13.01,2013-08-21 02:16:00,
2013-08-20 21:17:00,75.7,58.4,29.12,South,184,4.0,4.0,55,0.00,,,0.00,VWS V13.01,2013-08-21 02:17:00,
2013-08-20 21:19:00,75.7,58.4,29.12,South,184,3.1,3.1,55,0.00,,,0.00,VWS V13.01,2013-08-21 02:19:00,
2013-08-20 21:20:00,75.7,58.4,29.12,South,184,3.1,3.1,55,0.00,,,0.00,VWS V13.01,2013-08-21 02:20:00,
2013-08-20 21:21:00,75.6,58.3,29.12,South,184,3.1,3.1,55,0.00,,,0.00,VWS V13.01,2013-08-21 02:21:00,
2013-08-20 21:22:00,75.6,58.3,29.12,South,184,3.1,3.1,55,0.00,,,0.00,VWS V13.01,2013-08-21 02:22:00,
2013-08-20 21:24:00,75.6,58.3,29.12,South,184,3.1,3.1,55,0.00,,,0.00,VWS V13.01,2013-08-21 02:24:00,
2013-08-20 21:25:00,75.6,58.3,29.12,South,184,3.1,3.1,55,0.00,,,0.00,VWS V13.01,2013-08-21 02:25:00,
2013-08-20 21:26:00,75.6,58.3,29.12,South,186,4.0,4.0,55,0.00,,,0.00,VWS V13.01,2013-08-21 02:26:00,
2013-08-20 21:27:00,75.6,58.3,29.12,South,186,3.6,3.6,55,0.00,,,0.00,VWS V13.01,2013-08-21 02:27:00,
2013-08-20 21:29:00,75.6,58.3,29.12,South,185,3.1,3.1,55,0.00,,,0.00,VWS V13.01,2013-08-21 02:29:00,
2013-08-20 21:30:00,75.6,58.3,29.12,South,185,3.1,3.1,55,0.00,,,0.00,VWS V13.01,2013-08-21 02:30:00,
2013-08-20 21:31:00,75.6,58.3,29.12,South,184,3.6,3.6,55,0.00,,,0.00,VWS V13.01,2013-08-21 02:31:00,
2013-08-20 21:32:00,75.6,58.3,29.12,South,184,3.6,3.6,55,0.00,,,0.00,VWS V13.01,2013-08-21 02:32:00,
2013-08-20 21:35:00,75.4,58.1,29.12,South,183,3.1,3.1,55,0.00,,,0.00,VWS V13.01,2013-08-21 02:35:00,
2013-08-20 21:36:00,75.4,58.1,29.12,South,185,4.0,4.0,55,0.00,,,0.00,VWS V13.01,2013-08-21 02:36:00,
2013-08-20 21:37:00,75.4,58.1,29.12,South,185,3.6,3.6,55,0.00,,,0.00,VWS V13.01,2013-08-21 02:37:00,
2013-08-20 21:40:00,75.2,57.9,29.12,South,183,4.0,4.0,55,0.00,,,0.00,VWS V13.01,2013-08-21 02:40:00,
2013-08-20 21:41:00,75.2,57.9,29.12,South,182,3.1,3.1,55,0.00,,,0.00,VWS V13.01,2013-08-21 02:41:00,
2013-08-20 21:42:00,75.2,57.9,29.12,South,182,4.0,4.0,55,0.00,,,0.00,VWS V13.01,2013-08-21 02:42:00,
2013-08-20 21:45:00,75.0,57.8,29.12,South,182,3.6,3.6,55,0.00,,,0.00,VWS V13.01,2013-08-21 02:45:00,
2013-08-20 21:47:00,75.0,57.8,29.12,South,182,2.7,2.7,55,0.00,,,0.00,VWS V13.01,2013-08-21 02:47:00,
2013-08-20 21:50:00,74.8,57.6,29.12,South,182,3.1,3.1,55,0.00,,,0.00,VWS V13.01,2013-08-21 02:50:00,
2013-08-20 21:52:00,74.8,57.6,29.12,South,182,3.6,3.6,55,0.00,,,0.00,VWS V13.01,2013-08-21 02:52:00,
2013-08-20 21:55:00,74.7,57.4,29.12,South,182,3.6,3.6,55,0.00,,,0.00,VWS V13.01,2013-08-21 02:55:00,
2013-08-20 21:57:00,74.7,57.4,29.12,South,182,3.1,3.1,55,0.00,,,0.00,VWS V13.01,2013-08-21 02:57:00,
2013-08-20 21:58:00,74.7,57.4,29.12,South,182,3.6,3.6,55,0.00,,,0.00,VWS V13.01,2013-08-21 02:58:00,
2013-08-20 22:00:00,74.5,57.3,29.12,South,182,3.1,3.1,55,0.00,,,0.00,VWS V13.01,2013-08-21 03:00:00,
2013-08-20 22:02:00,74.5,57.3,29.12,South,182,3.1,3.1,55,0.00,,,0.00,VWS V13.01,2013-08-21 03:02:00,
2013-08-20 22:03:00,74.3,57.1,29.12,South,182,3.1,3.1,55,0.00,,,0.00,VWS V13.01,2013-08-21 03:03:00,
2013-08-20 22:05:00,74.1,56.9,29.12,South,182,3.1,3.1,55,0.00,,,0.00,VWS V13.01,2013-08-21 03:05:00,
2013-08-20 22:06:00,74.1,56.9,29.12,South,182,3.1,3.1,55,0.00,,,0.00,VWS V13.01,2013-08-21 03:06:00,
2013-08-20 22:07:00,74.1,56.9,29.12,South,182,3.1,3.1,55,0.00,,,0.00,VWS V13.01,2013-08-21 03:07:00,
2013-08-20 22:08:00,74.1,56.9,29.12,South,182,3.1,3.1,55,0.00,,,0.00,VWS V13.01,2013-08-21 03:08:00,
2013-08-20 22:10:00,74.1,56.9,29.12,South,182,3.6,3.6,55,0.00,,,0.00,VWS V13.01,2013-08-21 03:10:00,
2013-08-20 22:11:00,74.1,56.9,29.12,South,182,3.1,3.1,55,0.00,,,0.00,VWS V13.01,2013-08-21 03:11:00,
2013-08-20 22:12:00,73.9,56.8,29.12,South,182,3.1,3.1,55,0.00,,,0.00,VWS V13.01,2013-08-21 03:12:00,
2013-08-20 22:13:00,73.9,56.8,29.12,South,182,3.6,3.6,55,0.00,,,0.00,VWS V13.01,2013-08-21 03:13:00,
2013-08-20 22:15:00,73.9,56.8,29.12,South,182,3.1,3.1,55,0.00,,,0.00,VWS V13.01,2013-08-21 03:15:00,
2013-08-20 22:16:00,73.9,56.8,29.12,South,182,3.1,3.1,55,0.00,,,0.00,VWS V13.01,2013-08-21 03:16:00,
2013-08-20 22:17:00,73.9,56.8,29.12,South,182,4.0,4.0,55,0.00,,,0.00,VWS V13.01,2013-08-21 03:17:00,
2013-08-20 22:18:00,73.9,56.8,29.12,South,182,4.0,4.0,55,0.00,,,0.00,VWS V13.01,2013-08-21 03:18:00,
2013-08-20 22:21:00,74.1,56.9,29.12,South,182,3.6,3.6,55,0.00,,,0.00,VWS V13.01,2013-08-21 03:21:00,
2013-08-20 22:22:00,74.1,56.9,29.12,South,182,3.6,3.6,55,0.00,,,0.00,VWS V13.01,2013-08-21 03:22:00,
2013-08-20 22:23:00,74.1,64.9,29.12,South,182,3.6,3.6,73,0.00,,,0.00,VWS V13.01,2013-08-21 03:23:00,
2013-08-20 22:26:00,73.9,64.8,29.12,South,182,3.6,3.6,73,0.00,,,0.00,VWS V13.01,2013-08-21 03:26:00,
2013-08-20 22:27:00,73.9,64.8,29.12,South,182,4.0,4.0,73,0.00,,,0.00,VWS V13.01,2013-08-21 03:27:00,
2013-08-20 22:28:00,73.8,64.6,29.12,South,182,4.0,4.0,73,0.00,,,0.00,VWS V13.01,2013-08-21 03:28:00,
2013-08-20 22:31:00,73.6,64.4,29.12,South,182,3.6,3.6,73,0.00,,,0.00,VWS V13.01,2013-08-21 03:31:00,
2013-08-20 22:32:00,73.6,64.4,29.12,South,182,2.7,2.7,73,0.00,,,0.00,VWS V13.01,2013-08-21 03:32:00,
2013-08-20 22:33:00,73.4,64.2,29.12,South,182,3.6,3.6,73,0.00,,,0.00,VWS V13.01,2013-08-21 03:33:00,
2013-08-20 22:36:00,73.4,64.2,29.12,South,182,3.6,3.6,73,0.00,,,0.00,VWS V13.01,2013-08-21 03:36:00,
2013-08-20 22:37:00,73.4,64.2,29.12,South,182,3.1,3.1,73,0.00,,,0.00,VWS V13.01,2013-08-21 03:37:00,
2013-08-20 22:38:00,73.4,64.2,29.12,South,182,4.0,4.0,73,0.00,,,0.00,VWS V13.01,2013-08-21 03:38:00,
2013-08-20 22:41:00,73.6,64.4,29.12,South,182,4.0,4.0,73,0.00,,,0.00,VWS V13.01,2013-08-21 03:41:00,
2013-08-20 22:42:00,73.4,64.2,29.12,South,182,4.0,4.0,73,0.00,,,0.00,VWS V13.01,2013-08-21 03:42:00,
2013-08-20 22:43:00,73.4,64.2,29.12,South,182,3.6,3.6,73,0.00,,,0.00,VWS V13.01,2013-08-21 03:43:00,
2013-08-20 22:46:00,73.2,64.1,29.12,South,182,3.1,3.1,73,0.00,,,0.00,VWS V13.01,2013-08-21 03:46:00,
2013-08-20 22:47:00,73.2,64.1,29.12,South,182,3.6,3.6,73,0.00,,,0.00,VWS V13.01,2013-08-21 03:47:00,
2013-08-20 22:48:00,73.2,64.1,29.12,South,182,2.7,2.7,73,0.00,,,0.00,VWS V13.01,2013-08-21 03:48:00,
2013-08-20 22:51:00,73.2,64.1,29.12,South,182,4.0,4.0,73,0.00,,,0.00,VWS V13.01,2013-08-21 03:51:00,
2013-08-20 22:52:00,73.2,64.1,29.12,South,182,3.6,3.6,73,0.00,,,0.00,VWS V13.01,2013-08-21 03:52:00,
2013-08-20 22:54:00,73.2,64.1,29.12,South,182,3.1,3.1,73,0.00,,,0.00,VWS V13.01,2013-08-21 03:54:00,
2013-08-20 22:56:00,73.0,63.9,29.15,South,182,3.1,3.1,73,0.00,,,0.00,VWS V13.01,2013-08-21 03:56:00,
2013-08-20 22:57:00,73.0,63.9,29.15,South,182,3.1,3.1,73,0.00,,,0.00,VWS V13.01,2013-08-21 03:57:00,
2013-08-20 22:59:00,73.0,63.9,29.15,South,182,3.6,3.6,73,0.00,,,0.00,VWS V13.01,2013-08-21 03:59:00,
2013-08-20 23:01:00,73.0,63.9,29.15,South,182,3.1,3.1,73,0.00,,,0.00,VWS V13.01,2013-08-21 04:01:00,
2013-08-20 23:06:00,72.9,63.7,29.15,South,182,3.6,3.6,73,0.00,,,0.00,VWS V13.01,2013-08-21 04:06:00,
2013-08-20 23:11:00,72.9,63.7,29.12,South,182,2.7,2.7,73,0.00,,,0.00,VWS V13.01,2013-08-21 04:11:00,
2013-08-20 23:16:00,72.7,63.5,29.12,South,182,3.1,3.1,73,0.00,,,0.00,VWS V13.01,2013-08-21 04:16:00,
2013-08-20 23:17:00,72.7,63.5,29.12,South,182,3.1,3.1,73,0.00,,,0.00,VWS V13.01,2013-08-21 04:17:00,
2013-08-20 23:21:00,72.5,63.4,29.12,South,182,3.6,3.6,73,0.00,,,0.00,VWS V13.01,2013-08-21 04:21:00,
2013-08-20 23:22:00,72.5,63.4,29.12,South,182,2.7,2.7,73,0.00,,,0.00,VWS V13.01,2013-08-21 04:22:00,
2013-08-20 23:26:00,72.5,69.7,29.15,South,182,2.7,2.7,91,0.00,,,0.00,VWS V13.01,2013-08-21 04:26:00,
2013-08-20 23:27:00,72.5,69.7,29.15,South,182,3.1,3.1,91,0.00,,,0.00,VWS V13.01,2013-08-21 04:27:00,
2013-08-20 23:31:00,72.3,69.6,29.15,South,182,2.7,2.7,91,0.00,,,0.00,VWS V13.01,2013-08-21 04:31:00,
2013-08-20 23:32:00,72.3,69.6,29.15,South,182,3.6,3.6,91,0.00,,,0.00,VWS V13.01,2013-08-21 04:32:00,
2013-08-20 23:36:00,72.1,69.4,29.15,South,182,2.7,2.7,91,0.00,,,0.00,VWS V13.01,2013-08-21 04:36:00,
2013-08-20 23:37:00,72.1,69.4,29.15,South,182,3.1,3.1,91,0.00,,,0.00,VWS V13.01,2013-08-21 04:37:00,
2013-08-20 23:41:00,72.1,69.4,29.15,South,182,2.7,2.7,91,0.00,,,0.00,VWS V13.01,2013-08-21 04:41:00,
2013-08-20 23:42:00,72.1,69.4,29.15,South,182,2.7,2.7,91,0.00,,,0.00,VWS V13.01,2013-08-21 04:42:00,
2013-08-20 23:46:00,72.1,69.4,29.15,South,182,2.7,2.7,91,0.00,,,0.00,VWS V13.01,2013-08-21 04:46:00,
2013-08-20 23:47:00,72.1,69.4,29.15,South,182,2.7,2.7,91,0.00,,,0.00,VWS V13.01,2013-08-21 04:47:00,
2013-08-20 23:51:00,72.1,69.4,29.15,South,182,2.7,2.7,91,0.00,,,0.00,VWS V13.01,2013-08-21 04:51:00,
2013-08-20 23:52:00,72.1,69.4,29.15,South,182,2.7,2.7,91,0.00,,,0.00,VWS V13.01,2013-08-21 04:52:00,
2013-08-20 23:56:00,72.0,69.2,29.15,South,182,3.6,3.6,91,0.00,,,0.00,VWS V13.01,2013-08-21 04:56:00,
2013-08-20 23:57:00,72.1,69.4,29.15,South,182,3.1,3.1,91,0.00,,,0.00,VWS V13.01,2013-08-21 04:57:00,